PWSweather.com
Personal Weather Stations
Station Observations
KOHREFORM1
Reform, Ohio, Newark, OH 43055

Reform, OhioNewark, OH 43055

Lat: 40.1502, Lon: -82.2417

Elevation: 1043

Station Type: Davis Vantage Pro 2 Plus

randysweatheronthehill.com

High Low Average
Temperature 57.5°F14.2°C 20.2°F-6.6°C 40.9°F4.9°C
Dew Point 55.5°F13.1°C 17.5°F-8.1°C 38.3°F3.5°C
Winds 21.0 mph 33.8 kmh Calm Calm 5.0 mph SE8.0 kmh SE
Wind Gusts 24.0 mph38.6 kmh -- 14.0 mph22.5 kmh
Humidity 97% 89% 94%
Pressure 30.00 in1015.9 mb 29.64 in1003.7 mb -
Precipitation 0.50 in12.7 mm - -
Hour Temp Dew Point Humidity Winds Wind Gusts Pressure Precip Precip Rate Daily Precip Total
12:01 AM 56.0°F13.3°C 53.7°F12.1°C 96% 1.0 mph S1.6 kmh S 7.0 mph11.3 kmh 29.85 in1010.8 mb 0.00 in0.0 mm 0.00 in0.0 mm 0.71 in18.0 mm
12:03 AM 56.0°F13.3°C 53.7°F12.1°C 96% Calm Calm 4.0 mph6.4 kmh 29.85 in1010.8 mb 0.00 in0.0 mm 0.00 in0.0 mm 0.71 in18.0 mm
12:05 AM 55.9°F13.3°C 53.6°F12.0°C 96% 1.0 mph S1.6 kmh S 2.0 mph3.2 kmh 29.84 in1010.5 mb 0.00 in0.0 mm 0.00 in0.0 mm 0.71 in18.0 mm
12:07 AM 56.0°F13.3°C 53.7°F12.1°C 96% Calm Calm 3.0 mph4.8 kmh 29.84 in1010.5 mb 0.00 in0.0 mm 0.00 in0.0 mm 0.71 in18.0 mm
12:09 AM 56.0°F13.3°C 53.7°F12.1°C 96% 2.0 mph WNW3.2 kmh WNW 3.0 mph4.8 kmh 29.84 in1010.5 mb 0.00 in0.0 mm 0.00 in0.0 mm 0.71 in18.0 mm
12:11 AM 56.0°F13.3°C 53.7°F12.1°C 96% Calm Calm 3.0 mph4.8 kmh 29.84 in1010.5 mb 0.00 in0.0 mm 0.00 in0.0 mm 0.71 in18.0 mm
12:13 AM 56.0°F13.3°C 53.7°F12.1°C 96% 2.0 mph S3.2 kmh S 3.0 mph4.8 kmh 29.84 in1010.5 mb 0.00 in0.0 mm 0.00 in0.0 mm 0.71 in18.0 mm
12:15 AM 56.0°F13.3°C 53.7°F12.1°C 96% 2.0 mph SW3.2 kmh SW 10.0 mph16.1 kmh 29.84 in1010.5 mb 0.00 in0.0 mm 0.00 in0.0 mm 0.71 in18.0 mm
12:17 AM 56.1°F13.4°C 53.8°F12.1°C 96% 1.0 mph WSW1.6 kmh WSW 10.0 mph16.1 kmh 29.84 in1010.5 mb 0.00 in0.0 mm 0.00 in0.0 mm 0.71 in18.0 mm
12:19 AM 56.1°F13.4°C 53.8°F12.1°C 96% Calm Calm 10.0 mph16.1 kmh 29.84 in1010.5 mb 0.00 in0.0 mm 0.00 in0.0 mm 0.71 in18.0 mm
12:21 AM 56.1°F13.4°C 53.8°F12.1°C 96% 1.0 mph WSW1.6 kmh WSW 10.0 mph16.1 kmh 29.84 in1010.5 mb 0.00 in0.0 mm 0.00 in0.0 mm 0.71 in18.0 mm
12:23 AM 56.2°F13.4°C 53.9°F12.2°C 96% 3.0 mph S4.8 kmh S 10.0 mph16.1 kmh 29.84 in1010.5 mb 0.00 in0.0 mm 0.00 in0.0 mm 0.71 in18.0 mm
12:25 AM 56.2°F13.4°C 53.9°F12.2°C 96% Calm Calm 10.0 mph16.1 kmh 29.84 in1010.5 mb 0.00 in0.0 mm 0.00 in0.0 mm 0.71 in18.0 mm
12:27 AM 56.2°F13.4°C 53.9°F12.2°C 96% Calm Calm 10.0 mph16.1 kmh 29.84 in1010.5 mb 0.00 in0.0 mm 0.00 in0.0 mm 0.71 in18.0 mm
12:29 AM 56.1°F13.4°C 53.8°F12.1°C 96% Calm Calm 10.0 mph16.1 kmh 29.83 in1010.2 mb 0.00 in0.0 mm 0.00 in0.0 mm 0.71 in18.0 mm
12:31 AM 56.1°F13.4°C 53.8°F12.1°C 96% 3.0 mph S4.8 kmh S 10.0 mph16.1 kmh 29.83 in1010.2 mb 0.00 in0.0 mm 0.00 in0.0 mm 0.71 in18.0 mm
12:33 AM 56.1°F13.4°C 53.8°F12.1°C 96% Calm Calm 10.0 mph16.1 kmh 29.83 in1010.2 mb 0.00 in0.0 mm 0.00 in0.0 mm 0.71 in18.0 mm
12:35 AM 56.1°F13.4°C 53.8°F12.1°C 96% 1.0 mph SW1.6 kmh SW 5.0 mph8.0 kmh 29.83 in1010.2 mb 0.00 in0.0 mm 0.00 in0.0 mm 0.71 in18.0 mm
12:37 AM 56.0°F13.3°C 53.7°F12.1°C 96% Calm Calm 5.0 mph8.0 kmh 29.83 in1010.2 mb 0.00 in0.0 mm 0.00 in0.0 mm 0.71 in18.0 mm
12:39 AM 56.0°F13.3°C 53.7°F12.1°C 96% 4.0 mph SW6.4 kmh SW 5.0 mph8.0 kmh 29.83 in1010.2 mb 0.00 in0.0 mm 0.00 in0.0 mm 0.71 in18.0 mm
12:41 AM 56.0°F13.3°C 53.7°F12.1°C 96% Calm Calm 5.0 mph8.0 kmh 29.83 in1010.2 mb 0.00 in0.0 mm 0.00 in0.0 mm 0.71 in18.0 mm
12:43 AM 56.1°F13.4°C 53.8°F12.1°C 96% 3.0 mph WSW4.8 kmh WSW 5.0 mph8.0 kmh 29.83 in1010.2 mb 0.00 in0.0 mm 0.00 in0.0 mm 0.71 in18.0 mm
12:45 AM 56.2°F13.4°C 53.9°F12.2°C 96% 5.0 mph SW8.0 kmh SW 6.0 mph9.7 kmh 29.83 in1010.2 mb 0.00 in0.0 mm 0.00 in0.0 mm 0.71 in18.0 mm
12:47 AM 56.2°F13.4°C 53.9°F12.2°C 96% 6.0 mph SSW9.7 kmh SSW 6.0 mph9.7 kmh 29.82 in1009.8 mb 0.00 in0.0 mm 0.00 in0.0 mm 0.71 in18.0 mm
12:49 AM 56.2°F13.4°C 53.9°F12.2°C 96% 1.0 mph S1.6 kmh S 6.0 mph9.7 kmh 29.82 in1009.8 mb 0.00 in0.0 mm 0.00 in0.0 mm 0.71 in18.0 mm
12:51 AM 56.3°F13.5°C 54.0°F12.2°C 96% 1.0 mph SW1.6 kmh SW 6.0 mph9.7 kmh 29.82 in1009.8 mb 0.00 in0.0 mm 0.00 in0.0 mm 0.71 in18.0 mm
12:53 AM 56.3°F13.5°C 54.0°F12.2°C 96% 1.0 mph S1.6 kmh S 6.0 mph9.7 kmh 29.82 in1009.8 mb 0.00 in0.0 mm 0.00 in0.0 mm 0.71 in18.0 mm
12:55 AM 56.3°F13.5°C 54.0°F12.2°C 96% 1.0 mph WSW1.6 kmh WSW 8.0 mph12.9 kmh 29.82 in1009.8 mb 0.00 in0.0 mm 0.00 in0.0 mm 0.72 in18.3 mm
12:57 AM 56.3°F13.5°C 54.0°F12.2°C 96% 2.0 mph SW3.2 kmh SW 8.0 mph12.9 kmh 29.82 in1009.8 mb 0.00 in0.0 mm 0.00 in0.0 mm 0.72 in18.3 mm
12:59 AM 56.3°F13.5°C 54.0°F12.2°C 96% 7.0 mph SSW11.3 kmh SSW 8.0 mph12.9 kmh 29.82 in1009.8 mb 0.00 in0.0 mm 0.00 in0.0 mm 0.72 in18.3 mm
01:01 AM 56.4°F13.6°C 54.1°F12.3°C 96% 2.0 mph SSW3.2 kmh SSW 8.0 mph12.9 kmh 29.82 in1009.8 mb 0.00 in0.0 mm 0.00 in0.0 mm 0.00 in0.0 mm
01:03 AM 56.4°F13.6°C 54.1°F12.3°C 96% 4.0 mph SW6.4 kmh SW 8.0 mph12.9 kmh 29.82 in1009.8 mb 0.00 in0.0 mm 0.00 in0.0 mm 0.00 in0.0 mm
01:05 AM 56.5°F13.6°C 54.2°F12.3°C 96% 1.0 mph S1.6 kmh S 8.0 mph12.9 kmh 29.81 in1009.5 mb 0.00 in0.0 mm 0.00 in0.0 mm 0.00 in0.0 mm
01:07 AM 56.6°F13.7°C 54.3°F12.4°C 96% 1.0 mph SW1.6 kmh SW 8.0 mph12.9 kmh 29.81 in1009.5 mb 0.00 in0.0 mm 0.00 in0.0 mm 0.00 in0.0 mm
01:09 AM 56.6°F13.7°C 54.3°F12.4°C 96% 1.0 mph SW1.6 kmh SW 8.0 mph12.9 kmh 29.81 in1009.5 mb 0.00 in0.0 mm 0.00 in0.0 mm 0.00 in0.0 mm
01:11 AM 56.6°F13.7°C 54.3°F12.4°C 96% 1.0 mph WSW1.6 kmh WSW 8.0 mph12.9 kmh 29.80 in1009.1 mb 0.00 in0.0 mm 0.00 in0.0 mm 0.00 in0.0 mm
01:13 AM 56.6°F13.7°C 54.6°F12.6°C 97% 1.0 mph SSW1.6 kmh SSW 8.0 mph12.9 kmh 29.80 in1009.1 mb 0.00 in0.0 mm 0.00 in0.0 mm 0.00 in0.0 mm
01:15 AM 56.7°F13.7°C 54.7°F12.6°C 97% 6.0 mph S9.7 kmh S 8.0 mph12.9 kmh 29.80 in1009.1 mb 0.00 in0.0 mm 0.00 in0.0 mm 0.00 in0.0 mm
01:17 AM 56.7°F13.7°C 54.7°F12.6°C 97% 2.0 mph S3.2 kmh S 8.0 mph12.9 kmh 29.80 in1009.1 mb 0.00 in0.0 mm 0.00 in0.0 mm 0.00 in0.0 mm
01:19 AM 56.8°F13.8°C 54.8°F12.7°C 97% 1.0 mph S1.6 kmh S 8.0 mph12.9 kmh 29.80 in1009.1 mb 0.00 in0.0 mm 0.00 in0.0 mm 0.00 in0.0 mm
01:21 AM 56.8°F13.8°C 54.8°F12.7°C 97% 1.0 mph WSW1.6 kmh WSW 8.0 mph12.9 kmh 29.80 in1009.1 mb 0.00 in0.0 mm 0.00 in0.0 mm 0.00 in0.0 mm
01:23 AM 56.7°F13.7°C 54.7°F12.6°C 97% 4.0 mph SW6.4 kmh SW 8.0 mph12.9 kmh 29.80 in1009.1 mb 0.00 in0.0 mm 0.00 in0.0 mm 0.00 in0.0 mm
01:25 AM 56.7°F13.7°C 54.7°F12.6°C 97% 7.0 mph SW11.3 kmh SW 8.0 mph12.9 kmh 29.80 in1009.1 mb 0.00 in0.0 mm 0.00 in0.0 mm 0.00 in0.0 mm
01:27 AM 56.7°F13.7°C 54.4°F12.4°C 96% 2.0 mph SSW3.2 kmh SSW 9.0 mph14.5 kmh 29.80 in1009.1 mb 0.00 in0.0 mm 0.00 in0.0 mm 0.00 in0.0 mm
01:29 AM 56.8°F13.8°C 54.8°F12.7°C 97% 1.0 mph WSW1.6 kmh WSW 9.0 mph14.5 kmh 29.80 in1009.1 mb 0.00 in0.0 mm 0.00 in0.0 mm 0.00 in0.0 mm
01:31 AM 56.9°F13.8°C 54.9°F12.7°C 97% Calm Calm 9.0 mph14.5 kmh 29.79 in1008.8 mb 0.00 in0.0 mm 0.00 in0.0 mm 0.00 in0.0 mm
01:33 AM 56.9°F13.8°C 54.9°F12.7°C 97% 2.0 mph SW3.2 kmh SW 9.0 mph14.5 kmh 29.79 in1008.8 mb 0.00 in0.0 mm 0.00 in0.0 mm 0.00 in0.0 mm
01:35 AM 56.9°F13.8°C 54.9°F12.7°C 97% 2.0 mph SSW3.2 kmh SSW 9.0 mph14.5 kmh 29.79 in1008.8 mb 0.00 in0.0 mm 0.00 in0.0 mm 0.00 in0.0 mm
01:37 AM 56.9°F13.8°C 54.9°F12.7°C 97% Calm Calm 9.0 mph14.5 kmh 29.78 in1008.5 mb 0.00 in0.0 mm 0.00 in0.0 mm 0.00 in0.0 mm
01:39 AM 56.9°F13.8°C 54.9°F12.7°C 97% 5.0 mph SSW8.0 kmh SSW 9.0 mph14.5 kmh 29.78 in1008.5 mb 0.00 in0.0 mm 0.00 in0.0 mm 0.00 in0.0 mm
01:41 AM 56.9°F13.8°C 54.6°F12.6°C 96% 3.0 mph WSW4.8 kmh WSW 9.0 mph14.5 kmh 29.78 in1008.5 mb 0.00 in0.0 mm 0.00 in0.0 mm 0.00 in0.0 mm
01:43 AM 56.8°F13.8°C 54.5°F12.5°C 96% Calm Calm 9.0 mph14.5 kmh 29.78 in1008.5 mb 0.00 in0.0 mm 0.00 in0.0 mm 0.00 in0.0 mm
01:45 AM 56.8°F13.8°C 54.5°F12.5°C 96% Calm Calm 9.0 mph14.5 kmh 29.78 in1008.5 mb 0.00 in0.0 mm 0.00 in0.0 mm 0.00 in0.0 mm
01:47 AM 56.8°F13.8°C 54.5°F12.5°C 96% 1.0 mph SW1.6 kmh SW 6.0 mph9.7 kmh 29.78 in1008.5 mb 0.00 in0.0 mm 0.00 in0.0 mm 0.00 in0.0 mm
01:49 AM 56.9°F13.8°C 54.6°F12.6°C 96% 3.0 mph SW4.8 kmh SW 6.0 mph9.7 kmh 29.78 in1008.5 mb 0.00 in0.0 mm 0.00 in0.0 mm 0.00 in0.0 mm
01:51 AM 56.9°F13.8°C 54.9°F12.7°C 97% 2.0 mph SSW3.2 kmh SSW 6.0 mph9.7 kmh 29.78 in1008.5 mb 0.00 in0.0 mm 0.00 in0.0 mm 0.00 in0.0 mm
01:53 AM 57.0°F13.9°C 54.7°F12.6°C 96% 1.0 mph W1.6 kmh W 6.0 mph9.7 kmh 29.78 in1008.5 mb 0.00 in0.0 mm 0.00 in0.0 mm 0.00 in0.0 mm
01:55 AM 57.0°F13.9°C 54.7°F12.6°C 96% Calm Calm 6.0 mph9.7 kmh 29.78 in1008.5 mb 0.00 in0.0 mm 0.00 in0.0 mm 0.00 in0.0 mm
01:57 AM 56.9°F13.8°C 54.6°F12.6°C 96% Calm Calm 3.0 mph4.8 kmh 29.78 in1008.5 mb 0.00 in0.0 mm 0.00 in0.0 mm 0.00 in0.0 mm
01:59 AM 56.9°F13.8°C 54.6°F12.6°C 96% Calm Calm 3.0 mph4.8 kmh 29.77 in1008.1 mb 0.00 in0.0 mm 0.00 in0.0 mm 0.00 in0.0 mm
02:01 AM 56.9°F13.8°C 54.6°F12.6°C 96% 2.0 mph WSW3.2 kmh WSW 3.0 mph4.8 kmh 29.77 in1008.1 mb 0.00 in0.0 mm 0.00 in0.0 mm 0.00 in0.0 mm
02:03 AM 56.9°F13.8°C 54.6°F12.6°C 96% 2.0 mph W3.2 kmh W 3.0 mph4.8 kmh 29.77 in1008.1 mb 0.00 in0.0 mm 0.00 in0.0 mm 0.00 in0.0 mm
02:05 AM 56.9°F13.8°C 54.6°F12.6°C 96% 5.0 mph SW8.0 kmh SW 9.0 mph14.5 kmh 29.77 in1008.1 mb 0.00 in0.0 mm 0.00 in0.0 mm 0.00 in0.0 mm
02:07 AM 56.9°F13.8°C 54.6°F12.6°C 96% Calm Calm 9.0 mph14.5 kmh 29.77 in1008.1 mb 0.00 in0.0 mm 0.00 in0.0 mm 0.00 in0.0 mm
02:09 AM 56.9°F13.8°C 54.6°F12.6°C 96% 1.0 mph SW1.6 kmh SW 9.0 mph14.5 kmh 29.77 in1008.1 mb 0.00 in0.0 mm 0.00 in0.0 mm 0.00 in0.0 mm
02:11 AM 56.9°F13.8°C 54.6°F12.6°C 96% 1.0 mph W1.6 kmh W 9.0 mph14.5 kmh 29.77 in1008.1 mb 0.00 in0.0 mm 0.00 in0.0 mm 0.00 in0.0 mm
02:13 AM 56.9°F13.8°C 54.6°F12.6°C 96% Calm Calm 9.0 mph14.5 kmh 29.77 in1008.1 mb 0.00 in0.0 mm 0.00 in0.0 mm 0.00 in0.0 mm
02:15 AM 56.9°F13.8°C 54.6°F12.6°C 96% Calm Calm 9.0 mph14.5 kmh 29.77 in1008.1 mb 0.00 in0.0 mm 0.00 in0.0 mm 0.00 in0.0 mm
02:17 AM 56.9°F13.8°C 54.6°F12.6°C 96% Calm Calm 9.0 mph14.5 kmh 29.77 in1008.1 mb 0.00 in0.0 mm 0.00 in0.0 mm 0.00 in0.0 mm
02:19 AM 56.9°F13.8°C 54.6°F12.6°C 96% 1.0 mph SW1.6 kmh SW 9.0 mph14.5 kmh 29.77 in1008.1 mb 0.00 in0.0 mm 0.00 in0.0 mm 0.00 in0.0 mm
02:21 AM 56.9°F13.8°C 54.6°F12.6°C 96% 2.0 mph SW3.2 kmh SW 9.0 mph14.5 kmh 29.76 in1007.8 mb 0.00 in0.0 mm 0.00 in0.0 mm 0.00 in0.0 mm
02:23 AM 56.9°F13.8°C 54.6°F12.6°C 96% 2.0 mph SW3.2 kmh SW 9.0 mph14.5 kmh 29.76 in1007.8 mb 0.00 in0.0 mm 0.00 in0.0 mm 0.00 in0.0 mm
02:25 AM 57.0°F13.9°C 54.7°F12.6°C 96% 2.0 mph W3.2 kmh W 6.0 mph9.7 kmh 29.76 in1007.8 mb 0.00 in0.0 mm 0.00 in0.0 mm 0.00 in0.0 mm
02:27 AM 57.0°F13.9°C 54.7°F12.6°C 96% 2.0 mph SW3.2 kmh SW 7.0 mph11.3 kmh 29.76 in1007.8 mb 0.00 in0.0 mm 0.00 in0.0 mm 0.00 in0.0 mm
02:29 AM 57.0°F13.9°C 54.7°F12.6°C 96% 1.0 mph WSW1.6 kmh WSW 7.0 mph11.3 kmh 29.76 in1007.8 mb 0.00 in0.0 mm 0.00 in0.0 mm 0.00 in0.0 mm
02:31 AM 57.1°F13.9°C 54.8°F12.7°C 96% 2.0 mph SW3.2 kmh SW 7.0 mph11.3 kmh 29.76 in1007.8 mb 0.00 in0.0 mm 0.00 in0.0 mm 0.00 in0.0 mm
02:33 AM 57.1°F13.9°C 54.8°F12.7°C 96% 1.0 mph WSW1.6 kmh WSW 7.0 mph11.3 kmh 29.76 in1007.8 mb 0.00 in0.0 mm 0.00 in0.0 mm 0.00 in0.0 mm
02:35 AM 57.1°F13.9°C 54.8°F12.7°C 96% 2.0 mph SSW3.2 kmh SSW 7.0 mph11.3 kmh 29.76 in1007.8 mb 0.00 in0.0 mm 0.00 in0.0 mm 0.00 in0.0 mm
02:37 AM 57.1°F13.9°C 54.8°F12.7°C 96% 3.0 mph WSW4.8 kmh WSW 7.0 mph11.3 kmh 29.76 in1007.8 mb 0.00 in0.0 mm 0.00 in0.0 mm 0.00 in0.0 mm
02:39 AM 57.1°F13.9°C 54.8°F12.7°C 96% Calm Calm 7.0 mph11.3 kmh 29.76 in1007.8 mb 0.00 in0.0 mm 0.00 in0.0 mm 0.00 in0.0 mm
02:41 AM 57.1°F13.9°C 54.8°F12.7°C 96% 2.0 mph W3.2 kmh W 7.0 mph11.3 kmh 29.76 in1007.8 mb 0.00 in0.0 mm 0.00 in0.0 mm 0.00 in0.0 mm
02:43 AM 57.1°F13.9°C 54.8°F12.7°C 96% 1.0 mph WSW1.6 kmh WSW 7.0 mph11.3 kmh 29.76 in1007.8 mb 0.00 in0.0 mm 0.00 in0.0 mm 0.00 in0.0 mm
02:45 AM 57.1°F13.9°C 54.8°F12.7°C 96% 1.0 mph SW1.6 kmh SW 7.0 mph11.3 kmh 29.76 in1007.8 mb 0.00 in0.0 mm 0.00 in0.0 mm 0.00 in0.0 mm
02:47 AM 57.1°F13.9°C 54.8°F12.7°C 96% 2.0 mph W3.2 kmh W 8.0 mph12.9 kmh 29.76 in1007.8 mb 0.00 in0.0 mm 0.00 in0.0 mm 0.00 in0.0 mm
02:49 AM 57.1°F13.9°C 54.8°F12.7°C 96% Calm Calm 8.0 mph12.9 kmh 29.76 in1007.8 mb 0.00 in0.0 mm 0.00 in0.0 mm 0.00 in0.0 mm
02:51 AM 57.1°F13.9°C 54.8°F12.7°C 96% 1.0 mph WSW1.6 kmh WSW 8.0 mph12.9 kmh 29.76 in1007.8 mb 0.00 in0.0 mm 0.00 in0.0 mm 0.00 in0.0 mm
02:53 AM 57.1°F13.9°C 54.8°F12.7°C 96% 1.0 mph WSW1.6 kmh WSW 8.0 mph12.9 kmh 29.76 in1007.8 mb 0.00 in0.0 mm 0.00 in0.0 mm 0.00 in0.0 mm
02:55 AM 57.1°F13.9°C 54.8°F12.7°C 96% 2.0 mph SSW3.2 kmh SSW 8.0 mph12.9 kmh 29.75 in1007.5 mb 0.00 in0.0 mm 0.00 in0.0 mm 0.00 in0.0 mm
02:57 AM 57.1°F13.9°C 54.8°F12.7°C 96% 3.0 mph SW4.8 kmh SW 8.0 mph12.9 kmh 29.75 in1007.5 mb 0.00 in0.0 mm 0.00 in0.0 mm 0.00 in0.0 mm
02:59 AM 57.1°F13.9°C 54.8°F12.7°C 96% 3.0 mph SW4.8 kmh SW 8.0 mph12.9 kmh 29.76 in1007.8 mb 0.00 in0.0 mm 0.00 in0.0 mm 0.00 in0.0 mm
03:01 AM 57.1°F13.9°C 54.8°F12.7°C 96% 1.0 mph SW1.6 kmh SW 8.0 mph12.9 kmh 29.75 in1007.5 mb 0.00 in0.0 mm 0.00 in0.0 mm 0.00 in0.0 mm
03:03 AM 57.1°F13.9°C 54.8°F12.7°C 96% 1.0 mph SW1.6 kmh SW 8.0 mph12.9 kmh 29.75 in1007.5 mb 0.00 in0.0 mm 0.00 in0.0 mm 0.00 in0.0 mm
03:05 AM 57.1°F13.9°C 54.8°F12.7°C 96% 3.0 mph SW4.8 kmh SW 8.0 mph12.9 kmh 29.75 in1007.5 mb 0.00 in0.0 mm 0.00 in0.0 mm 0.00 in0.0 mm
03:07 AM 57.1°F13.9°C 54.8°F12.7°C 96% Calm Calm 5.0 mph8.0 kmh 29.75 in1007.5 mb 0.00 in0.0 mm 0.00 in0.0 mm 0.00 in0.0 mm
03:09 AM 57.1°F13.9°C 54.8°F12.7°C 96% 2.0 mph SW3.2 kmh SW 5.0 mph8.0 kmh 29.75 in1007.5 mb 0.00 in0.0 mm 0.00 in0.0 mm 0.00 in0.0 mm
03:11 AM 57.1°F13.9°C 54.8°F12.7°C 96% Calm Calm 5.0 mph8.0 kmh 29.75 in1007.5 mb 0.00 in0.0 mm 0.00 in0.0 mm 0.00 in0.0 mm
03:13 AM 57.1°F13.9°C 54.8°F12.7°C 96% Calm Calm 5.0 mph8.0 kmh 29.75 in1007.5 mb 0.00 in0.0 mm 0.00 in0.0 mm 0.00 in0.0 mm
03:15 AM 57.1°F13.9°C 54.8°F12.7°C 96% 4.0 mph SW6.4 kmh SW 7.0 mph11.3 kmh 29.75 in1007.5 mb 0.00 in0.0 mm 0.00 in0.0 mm 0.00 in0.0 mm
03:17 AM 57.1°F13.9°C 54.8°F12.7°C 96% 1.0 mph SW1.6 kmh SW 7.0 mph11.3 kmh 29.74 in1007.1 mb 0.00 in0.0 mm 0.00 in0.0 mm 0.00 in0.0 mm
03:19 AM 57.1°F13.9°C 54.8°F12.7°C 96% 3.0 mph W4.8 kmh W 7.0 mph11.3 kmh 29.74 in1007.1 mb 0.00 in0.0 mm 0.00 in0.0 mm 0.00 in0.0 mm
03:21 AM 57.1°F13.9°C 54.8°F12.7°C 96% 1.0 mph S1.6 kmh S 7.0 mph11.3 kmh 29.74 in1007.1 mb 0.00 in0.0 mm 0.00 in0.0 mm 0.00 in0.0 mm
03:23 AM 57.0°F13.9°C 54.7°F12.6°C 96% 3.0 mph S4.8 kmh S 7.0 mph11.3 kmh 29.74 in1007.1 mb 0.00 in0.0 mm 0.00 in0.0 mm 0.00 in0.0 mm
03:25 AM 57.1°F13.9°C 54.8°F12.7°C 96% Calm Calm 7.0 mph11.3 kmh 29.74 in1007.1 mb 0.00 in0.0 mm 0.00 in0.0 mm 0.00 in0.0 mm
03:27 AM 57.1°F13.9°C 54.8°F12.7°C 96% 2.0 mph SSW3.2 kmh SSW 7.0 mph11.3 kmh 29.74 in1007.1 mb 0.00 in0.0 mm 0.00 in0.0 mm 0.00 in0.0 mm
03:29 AM 57.1°F13.9°C 54.8°F12.7°C 96% 2.0 mph SW3.2 kmh SW 7.0 mph11.3 kmh 29.74 in1007.1 mb 0.00 in0.0 mm 0.00 in0.0 mm 0.00 in0.0 mm
03:31 AM 57.1°F13.9°C 54.8°F12.7°C 96% Calm Calm 7.0 mph11.3 kmh 29.73 in1006.8 mb 0.00 in0.0 mm 0.00 in0.0 mm 0.00 in0.0 mm
03:33 AM 57.1°F13.9°C 54.8°F12.7°C 96% Calm Calm 7.0 mph11.3 kmh 29.73 in1006.8 mb 0.00 in0.0 mm 0.00 in0.0 mm 0.00 in0.0 mm
03:35 AM 57.1°F13.9°C 54.8°F12.7°C 96% 2.0 mph S3.2 kmh S 8.0 mph12.9 kmh 29.73 in1006.8 mb 0.00 in0.0 mm 0.00 in0.0 mm 0.00 in0.0 mm
03:37 AM 57.2°F14.0°C 54.9°F12.7°C 96% 1.0 mph WSW1.6 kmh WSW 8.0 mph12.9 kmh 29.73 in1006.8 mb 0.00 in0.0 mm 0.00 in0.0 mm 0.00 in0.0 mm
03:39 AM 57.2°F14.0°C 54.9°F12.7°C 96% Calm Calm 8.0 mph12.9 kmh 29.73 in1006.8 mb 0.00 in0.0 mm 0.00 in0.0 mm 0.00 in0.0 mm
03:41 AM 57.2°F14.0°C 54.9°F12.7°C 96% 2.0 mph SW3.2 kmh SW 8.0 mph12.9 kmh 29.73 in1006.8 mb 0.00 in0.0 mm 0.00 in0.0 mm 0.00 in0.0 mm
03:43 AM 57.2°F14.0°C 54.9°F12.7°C 96% 1.0 mph SW1.6 kmh SW 8.0 mph12.9 kmh 29.73 in1006.8 mb 0.00 in0.0 mm 0.00 in0.0 mm 0.00 in0.0 mm
03:45 AM 57.2°F14.0°C 54.9°F12.7°C 96% Calm Calm 8.0 mph12.9 kmh 29.73 in1006.8 mb 0.00 in0.0 mm 0.00 in0.0 mm 0.00 in0.0 mm
03:47 AM 57.2°F14.0°C 54.9°F12.7°C 96% 3.0 mph SW4.8 kmh SW 8.0 mph12.9 kmh 29.73 in1006.8 mb 0.00 in0.0 mm 0.00 in0.0 mm 0.00 in0.0 mm
03:49 AM 57.2°F14.0°C 54.9°F12.7°C 96% 1.0 mph WSW1.6 kmh WSW 8.0 mph12.9 kmh 29.73 in1006.8 mb 0.00 in0.0 mm 0.00 in0.0 mm 0.00 in0.0 mm
03:51 AM 57.2°F14.0°C 54.9°F12.7°C 96% 2.0 mph SW3.2 kmh SW 8.0 mph12.9 kmh 29.73 in1006.8 mb 0.00 in0.0 mm 0.00 in0.0 mm 0.00 in0.0 mm
03:53 AM 57.2°F14.0°C 54.9°F12.7°C 96% 1.0 mph SW1.6 kmh SW 8.0 mph12.9 kmh 29.73 in1006.8 mb 0.00 in0.0 mm 0.00 in0.0 mm 0.00 in0.0 mm
03:55 AM 57.2°F14.0°C 54.9°F12.7°C 96% 1.0 mph SW1.6 kmh SW 7.0 mph11.3 kmh 29.72 in1006.4 mb 0.00 in0.0 mm 0.00 in0.0 mm 0.00 in0.0 mm
03:57 AM 57.3°F14.1°C 55.0°F12.8°C 96% 1.0 mph S1.6 kmh S 7.0 mph11.3 kmh 29.72 in1006.4 mb 0.00 in0.0 mm 0.00 in0.0 mm 0.00 in0.0 mm
03:59 AM 57.3°F14.1°C 55.0°F12.8°C 96% Calm Calm 7.0 mph11.3 kmh 29.72 in1006.4 mb 0.00 in0.0 mm 0.00 in0.0 mm 0.00 in0.0 mm
04:01 AM 57.3°F14.1°C 55.0°F12.8°C 96% Calm Calm 7.0 mph11.3 kmh 29.72 in1006.4 mb 0.00 in0.0 mm 0.00 in0.0 mm 0.00 in0.0 mm
04:03 AM 57.3°F14.1°C 55.0°F12.8°C 96% 4.0 mph SSW6.4 kmh SSW 7.0 mph11.3 kmh 29.72 in1006.4 mb 0.00 in0.0 mm 0.00 in0.0 mm 0.00 in0.0 mm
04:05 AM 57.3°F14.1°C 55.0°F12.8°C 96% 1.0 mph SW1.6 kmh SW 6.0 mph9.7 kmh 29.72 in1006.4 mb 0.00 in0.0 mm 0.00 in0.0 mm 0.00 in0.0 mm
04:07 AM 57.3°F14.1°C 55.0°F12.8°C 96% 2.0 mph SW3.2 kmh SW 6.0 mph9.7 kmh 29.72 in1006.4 mb 0.00 in0.0 mm 0.00 in0.0 mm 0.00 in0.0 mm
04:09 AM 57.3°F14.1°C 55.0°F12.8°C 96% 1.0 mph SW1.6 kmh SW 6.0 mph9.7 kmh 29.72 in1006.4 mb 0.00 in0.0 mm 0.00 in0.0 mm 0.00 in0.0 mm
04:11 AM 57.2°F14.0°C 55.2°F12.9°C 97% Calm Calm 6.0 mph9.7 kmh 29.72 in1006.4 mb 0.00 in0.0 mm 0.00 in0.0 mm 0.00 in0.0 mm
04:13 AM 57.2°F14.0°C 54.9°F12.7°C 96% 1.0 mph WSW1.6 kmh WSW 2.0 mph3.2 kmh 29.72 in1006.4 mb 0.00 in0.0 mm 0.00 in0.0 mm 0.00 in0.0 mm
04:15 AM 57.2°F14.0°C 54.9°F12.7°C 96% Calm Calm 2.0 mph3.2 kmh 29.72 in1006.4 mb 0.00 in0.0 mm 0.00 in0.0 mm 0.00 in0.0 mm
04:17 AM 57.2°F14.0°C 54.9°F12.7°C 96% 3.0 mph S4.8 kmh S 3.0 mph4.8 kmh 29.72 in1006.4 mb 0.00 in0.0 mm 0.00 in0.0 mm 0.00 in0.0 mm
04:19 AM 57.1°F13.9°C 54.8°F12.7°C 96% 2.0 mph WSW3.2 kmh WSW 4.0 mph6.4 kmh 29.72 in1006.4 mb 0.00 in0.0 mm 0.00 in0.0 mm 0.00 in0.0 mm
04:21 AM 57.1°F13.9°C 54.8°F12.7°C 96% 1.0 mph WSW1.6 kmh WSW 4.0 mph6.4 kmh 29.72 in1006.4 mb 0.00 in0.0 mm 0.00 in0.0 mm 0.00 in0.0 mm
04:23 AM 57.1°F13.9°C 54.8°F12.7°C 96% Calm Calm 4.0 mph6.4 kmh 29.72 in1006.4 mb 0.00 in0.0 mm 0.00 in0.0 mm 0.00 in0.0 mm
04:25 AM 57.1°F13.9°C 54.8°F12.7°C 96% Calm Calm 4.0 mph6.4 kmh 29.72 in1006.4 mb 0.00 in0.0 mm 0.00 in0.0 mm 0.00 in0.0 mm
04:27 AM 57.1°F13.9°C 54.8°F12.7°C 96% 1.0 mph SW1.6 kmh SW 4.0 mph6.4 kmh 29.72 in1006.4 mb 0.00 in0.0 mm 0.00 in0.0 mm 0.00 in0.0 mm
04:29 AM 57.1°F13.9°C 54.8°F12.7°C 96% 1.0 mph SW1.6 kmh SW 5.0 mph8.0 kmh 29.72 in1006.4 mb 0.00 in0.0 mm 0.00 in0.0 mm 0.00 in0.0 mm
04:31 AM 57.0°F13.9°C 54.7°F12.6°C 96% Calm Calm 5.0 mph8.0 kmh 29.72 in1006.4 mb 0.00 in0.0 mm 0.00 in0.0 mm 0.00 in0.0 mm
04:33 AM 57.0°F13.9°C 54.7°F12.6°C 96% 2.0 mph S3.2 kmh S 5.0 mph8.0 kmh 29.72 in1006.4 mb 0.00 in0.0 mm 0.00 in0.0 mm 0.00 in0.0 mm
04:35 AM 57.0°F13.9°C 54.7°F12.6°C 96% Calm Calm 5.0 mph8.0 kmh 29.72 in1006.4 mb 0.00 in0.0 mm 0.00 in0.0 mm 0.00 in0.0 mm
04:37 AM 56.9°F13.8°C 54.9°F12.7°C 97% Calm Calm 5.0 mph8.0 kmh 29.72 in1006.4 mb 0.00 in0.0 mm 0.00 in0.0 mm 0.00 in0.0 mm
04:39 AM 56.9°F13.8°C 54.9°F12.7°C 97% 1.0 mph SW1.6 kmh SW 2.0 mph3.2 kmh 29.72 in1006.4 mb 0.00 in0.0 mm 0.00 in0.0 mm 0.00 in0.0 mm
04:41 AM 56.8°F13.8°C 54.8°F12.7°C 97% Calm Calm -- 29.72 in1006.4 mb 0.00 in0.0 mm 0.00 in0.0 mm 0.00 in0.0 mm
04:43 AM 56.8°F13.8°C 54.8°F12.7°C 97% 2.0 mph SSE3.2 kmh SSE 6.0 mph9.7 kmh 29.71 in1006.1 mb 0.00 in0.0 mm 0.00 in0.0 mm 0.00 in0.0 mm
04:45 AM 56.8°F13.8°C 54.8°F12.7°C 97% Calm Calm 6.0 mph9.7 kmh 29.71 in1006.1 mb 0.00 in0.0 mm 0.00 in0.0 mm 0.00 in0.0 mm
04:47 AM 56.9°F13.8°C 54.9°F12.7°C 97% 3.0 mph E4.8 kmh E 6.0 mph9.7 kmh 29.71 in1006.1 mb 0.00 in0.0 mm 0.00 in0.0 mm 0.00 in0.0 mm
04:49 AM 56.8°F13.8°C 54.8°F12.7°C 97% 3.0 mph SSW4.8 kmh SSW 8.0 mph12.9 kmh 29.71 in1006.1 mb 0.00 in0.0 mm 0.00 in0.0 mm 0.00 in0.0 mm
04:51 AM 56.9°F13.8°C 54.9°F12.7°C 97% Calm Calm 8.0 mph12.9 kmh 29.71 in1006.1 mb 0.00 in0.0 mm 0.00 in0.0 mm 0.00 in0.0 mm
04:53 AM 56.9°F13.8°C 54.9°F12.7°C 97% 2.0 mph SSW3.2 kmh SSW 8.0 mph12.9 kmh 29.71 in1006.1 mb 0.00 in0.0 mm 0.00 in0.0 mm 0.00 in0.0 mm
04:55 AM 56.9°F13.8°C 54.9°F12.7°C 97% 2.0 mph SW3.2 kmh SW 8.0 mph12.9 kmh 29.70 in1005.8 mb 0.00 in0.0 mm 0.00 in0.0 mm 0.00 in0.0 mm
04:57 AM 56.9°F13.8°C 54.9°F12.7°C 97% 1.0 mph SW1.6 kmh SW 8.0 mph12.9 kmh 29.70 in1005.8 mb 0.00 in0.0 mm 0.00 in0.0 mm 0.00 in0.0 mm
04:59 AM 56.9°F13.8°C 54.9°F12.7°C 97% 1.0 mph SW1.6 kmh SW 8.0 mph12.9 kmh 29.70 in1005.8 mb 0.00 in0.0 mm 0.00 in0.0 mm 0.00 in0.0 mm
05:01 AM 56.9°F13.8°C 54.9°F12.7°C 97% 1.0 mph S1.6 kmh S 8.0 mph12.9 kmh 29.70 in1005.8 mb 0.00 in0.0 mm 0.00 in0.0 mm 0.00 in0.0 mm
05:03 AM 56.9°F13.8°C 54.9°F12.7°C 97% Calm Calm 8.0 mph12.9 kmh 29.70 in1005.8 mb 0.00 in0.0 mm 0.00 in0.0 mm 0.00 in0.0 mm
05:05 AM 56.9°F13.8°C 54.9°F12.7°C 97% Calm Calm 8.0 mph12.9 kmh 29.70 in1005.8 mb 0.00 in0.0 mm 0.00 in0.0 mm 0.00 in0.0 mm
05:07 AM 56.9°F13.8°C 54.9°F12.7°C 97% Calm Calm 8.0 mph12.9 kmh 29.70 in1005.8 mb 0.00 in0.0 mm 0.00 in0.0 mm 0.00 in0.0 mm
05:09 AM 57.0°F13.9°C 55.0°F12.8°C 97% 1.0 mph SSW1.6 kmh SSW 7.0 mph11.3 kmh 29.70 in1005.8 mb 0.00 in0.0 mm 0.00 in0.0 mm 0.00 in0.0 mm
05:11 AM 56.9°F13.8°C 54.9°F12.7°C 97% Calm Calm 7.0 mph11.3 kmh 29.70 in1005.8 mb 0.00 in0.0 mm 0.00 in0.0 mm 0.00 in0.0 mm
05:13 AM 56.9°F13.8°C 54.9°F12.7°C 97% 1.0 mph S1.6 kmh S 7.0 mph11.3 kmh 29.70 in1005.8 mb 0.00 in0.0 mm 0.00 in0.0 mm 0.00 in0.0 mm
05:15 AM 57.0°F13.9°C 55.0°F12.8°C 97% 1.0 mph S1.6 kmh S 7.0 mph11.3 kmh 29.69 in1005.4 mb 0.00 in0.0 mm 0.00 in0.0 mm 0.00 in0.0 mm
05:17 AM 56.9°F13.8°C 54.9°F12.7°C 97% 3.0 mph SW4.8 kmh SW 7.0 mph11.3 kmh 29.69 in1005.4 mb 0.00 in0.0 mm 0.00 in0.0 mm 0.00 in0.0 mm
05:19 AM 56.9°F13.8°C 54.9°F12.7°C 97% Calm Calm 6.0 mph9.7 kmh 29.70 in1005.8 mb 0.00 in0.0 mm 0.00 in0.0 mm 0.00 in0.0 mm
05:21 AM 56.8°F13.8°C 54.8°F12.7°C 97% 1.0 mph SW1.6 kmh SW 3.0 mph4.8 kmh 29.70 in1005.8 mb 0.00 in0.0 mm 0.00 in0.0 mm 0.00 in0.0 mm
05:23 AM 56.8°F13.8°C 54.8°F12.7°C 97% Calm Calm 5.0 mph8.0 kmh 29.69 in1005.4 mb 0.00 in0.0 mm 0.00 in0.0 mm 0.00 in0.0 mm
05:25 AM 56.8°F13.8°C 54.8°F12.7°C 97% 1.0 mph SW1.6 kmh SW 5.0 mph8.0 kmh 29.69 in1005.4 mb 0.00 in0.0 mm 0.00 in0.0 mm 0.00 in0.0 mm
05:27 AM 56.8°F13.8°C 54.8°F12.7°C 97% 1.0 mph SW1.6 kmh SW 5.0 mph8.0 kmh 29.69 in1005.4 mb 0.00 in0.0 mm 0.00 in0.0 mm 0.00 in0.0 mm
05:29 AM 56.8°F13.8°C 54.8°F12.7°C 97% 3.0 mph S4.8 kmh S 5.0 mph8.0 kmh 29.69 in1005.4 mb 0.00 in0.0 mm 0.00 in0.0 mm 0.00 in0.0 mm
05:31 AM 56.7°F13.7°C 54.7°F12.6°C 97% Calm Calm 5.0 mph8.0 kmh 29.69 in1005.4 mb 0.00 in0.0 mm 0.00 in0.0 mm 0.00 in0.0 mm
05:33 AM 56.7°F13.7°C 54.7°F12.6°C 97% 1.0 mph SSW1.6 kmh SSW 5.0 mph8.0 kmh 29.69 in1005.4 mb 0.00 in0.0 mm 0.00 in0.0 mm 0.00 in0.0 mm
05:35 AM 56.7°F13.7°C 54.7°F12.6°C 97% 4.0 mph S6.4 kmh S 5.0 mph8.0 kmh 29.69 in1005.4 mb 0.00 in0.0 mm 0.00 in0.0 mm 0.00 in0.0 mm
05:37 AM 56.7°F13.7°C 54.7°F12.6°C 97% 2.0 mph SSW3.2 kmh SSW 5.0 mph8.0 kmh 29.69 in1005.4 mb 0.00 in0.0 mm 0.00 in0.0 mm 0.00 in0.0 mm
05:39 AM 56.7°F13.7°C 54.4°F12.4°C 96% 1.0 mph SW1.6 kmh SW 6.0 mph9.7 kmh 29.69 in1005.4 mb 0.00 in0.0 mm 0.00 in0.0 mm 0.00 in0.0 mm
05:41 AM 56.7°F13.7°C 54.7°F12.6°C 97% Calm Calm 6.0 mph9.7 kmh 29.69 in1005.4 mb 0.00 in0.0 mm 0.00 in0.0 mm 0.00 in0.0 mm
05:43 AM 56.7°F13.7°C 54.7°F12.6°C 97% Calm Calm 4.0 mph6.4 kmh 29.69 in1005.4 mb 0.00 in0.0 mm 0.00 in0.0 mm 0.00 in0.0 mm
05:45 AM 56.8°F13.8°C 54.8°F12.7°C 97% 3.0 mph SSW4.8 kmh SSW 5.0 mph8.0 kmh 29.68 in1005.1 mb 0.00 in0.0 mm 0.00 in0.0 mm 0.00 in0.0 mm
05:47 AM 56.8°F13.8°C 54.8°F12.7°C 97% 3.0 mph SSE4.8 kmh SSE 5.0 mph8.0 kmh 29.68 in1005.1 mb 0.00 in0.0 mm 0.00 in0.0 mm 0.00 in0.0 mm
05:49 AM 56.8°F13.8°C 54.8°F12.7°C 97% 2.0 mph SSW3.2 kmh SSW 5.0 mph8.0 kmh 29.68 in1005.1 mb 0.00 in0.0 mm 0.00 in0.0 mm 0.00 in0.0 mm
05:51 AM 56.9°F13.8°C 54.9°F12.7°C 97% 4.0 mph S6.4 kmh S 7.0 mph11.3 kmh 29.68 in1005.1 mb 0.00 in0.0 mm 0.00 in0.0 mm 0.00 in0.0 mm
05:53 AM 56.9°F13.8°C 54.9°F12.7°C 97% Calm Calm 7.0 mph11.3 kmh 29.68 in1005.1 mb 0.00 in0.0 mm 0.00 in0.0 mm 0.00 in0.0 mm
05:55 AM 56.9°F13.8°C 54.9°F12.7°C 97% Calm Calm 7.0 mph11.3 kmh 29.68 in1005.1 mb 0.00 in0.0 mm 0.00 in0.0 mm 0.00 in0.0 mm
05:57 AM 56.9°F13.8°C 54.9°F12.7°C 97% 2.0 mph S3.2 kmh S 2.0 mph3.2 kmh 29.68 in1005.1 mb 0.00 in0.0 mm 0.00 in0.0 mm 0.00 in0.0 mm
05:59 AM 56.9°F13.8°C 54.9°F12.7°C 97% 1.0 mph S1.6 kmh S 4.0 mph6.4 kmh 29.68 in1005.1 mb 0.00 in0.0 mm 0.00 in0.0 mm 0.00 in0.0 mm
06:01 AM 56.9°F13.8°C 54.9°F12.7°C 97% Calm Calm 5.0 mph8.0 kmh 29.68 in1005.1 mb 0.00 in0.0 mm 0.00 in0.0 mm 0.00 in0.0 mm
06:03 AM 56.9°F13.8°C 54.9°F12.7°C 97% Calm Calm 5.0 mph8.0 kmh 29.68 in1005.1 mb 0.00 in0.0 mm 0.00 in0.0 mm 0.00 in0.0 mm
06:05 AM 56.9°F13.8°C 54.9°F12.7°C 97% 2.0 mph SW3.2 kmh SW 5.0 mph8.0 kmh 29.68 in1005.1 mb 0.00 in0.0 mm 0.00 in0.0 mm 0.00 in0.0 mm
06:07 AM 56.9°F13.8°C 54.9°F12.7°C 97% 1.0 mph WSW1.6 kmh WSW 5.0 mph8.0 kmh 29.67 in1004.7 mb 0.00 in0.0 mm 0.00 in0.0 mm 0.00 in0.0 mm
06:09 AM 56.9°F13.8°C 54.9°F12.7°C 97% Calm Calm 5.0 mph8.0 kmh 29.67 in1004.7 mb 0.00 in0.0 mm 0.00 in0.0 mm 0.00 in0.0 mm
06:11 AM 56.9°F13.8°C 54.9°F12.7°C 97% Calm Calm 1.0 mph1.6 kmh 29.67 in1004.7 mb 0.00 in0.0 mm 0.00 in0.0 mm 0.00 in0.0 mm
06:13 AM 56.8°F13.8°C 54.8°F12.7°C 97% 2.0 mph WSW3.2 kmh WSW 2.0 mph3.2 kmh 29.67 in1004.7 mb 0.00 in0.0 mm 0.00 in0.0 mm 0.00 in0.0 mm
06:15 AM 56.8°F13.8°C 54.8°F12.7°C 97% 1.0 mph S1.6 kmh S 4.0 mph6.4 kmh 29.67 in1004.7 mb 0.00 in0.0 mm 0.00 in0.0 mm 0.00 in0.0 mm
06:17 AM 56.9°F13.8°C 54.9°F12.7°C 97% 1.0 mph SSW1.6 kmh SSW 4.0 mph6.4 kmh 29.67 in1004.7 mb 0.00 in0.0 mm 0.00 in0.0 mm 0.00 in0.0 mm
06:19 AM 56.8°F13.8°C 54.8°F12.7°C 97% 1.0 mph SW1.6 kmh SW 4.0 mph6.4 kmh 29.66 in1004.4 mb 0.00 in0.0 mm 0.00 in0.0 mm 0.00 in0.0 mm
06:21 AM 56.8°F13.8°C 54.8°F12.7°C 97% 3.0 mph SW4.8 kmh SW 5.0 mph8.0 kmh 29.67 in1004.7 mb 0.00 in0.0 mm 0.00 in0.0 mm 0.00 in0.0 mm
06:23 AM 56.9°F13.8°C 54.9°F12.7°C 97% 1.0 mph SSW1.6 kmh SSW 5.0 mph8.0 kmh 29.67 in1004.7 mb 0.00 in0.0 mm 0.00 in0.0 mm 0.00 in0.0 mm
06:25 AM 56.9°F13.8°C 54.9°F12.7°C 97% 1.0 mph S1.6 kmh S 7.0 mph11.3 kmh 29.67 in1004.7 mb 0.00 in0.0 mm 0.00 in0.0 mm 0.00 in0.0 mm
06:27 AM 56.9°F13.8°C 54.9°F12.7°C 97% Calm Calm 7.0 mph11.3 kmh 29.67 in1004.7 mb 0.00 in0.0 mm 0.00 in0.0 mm 0.00 in0.0 mm
06:29 AM 56.9°F13.8°C 54.9°F12.7°C 97% Calm Calm 7.0 mph11.3 kmh 29.67 in1004.7 mb 0.00 in0.0 mm 0.00 in0.0 mm 0.00 in0.0 mm
06:31 AM 56.9°F13.8°C 54.9°F12.7°C 97% 2.0 mph W3.2 kmh W 7.0 mph11.3 kmh 29.67 in1004.7 mb 0.00 in0.0 mm 0.00 in0.0 mm 0.00 in0.0 mm
06:33 AM 56.9°F13.8°C 54.9°F12.7°C 97% 1.0 mph S1.6 kmh S 7.0 mph11.3 kmh 29.67 in1004.7 mb 0.00 in0.0 mm 0.00 in0.0 mm 0.00 in0.0 mm
06:35 AM 57.0°F13.9°C 55.0°F12.8°C 97% 5.0 mph SSW8.0 kmh SSW 8.0 mph12.9 kmh 29.67 in1004.7 mb 0.00 in0.0 mm 0.00 in0.0 mm 0.00 in0.0 mm
06:37 AM 57.0°F13.9°C 55.0°F12.8°C 97% 1.0 mph WSW1.6 kmh WSW 8.0 mph12.9 kmh 29.67 in1004.7 mb 0.00 in0.0 mm 0.00 in0.0 mm 0.00 in0.0 mm
06:39 AM 57.0°F13.9°C 55.0°F12.8°C 97% 2.0 mph SSW3.2 kmh SSW 8.0 mph12.9 kmh 29.67 in1004.7 mb 0.00 in0.0 mm 0.00 in0.0 mm 0.00 in0.0 mm
06:41 AM 56.9°F13.8°C 54.9°F12.7°C 97% 3.0 mph WSW4.8 kmh WSW 8.0 mph12.9 kmh 29.66 in1004.4 mb 0.00 in0.0 mm 0.00 in0.0 mm 0.00 in0.0 mm
06:43 AM 56.9°F13.8°C 54.9°F12.7°C 97% Calm Calm 8.0 mph12.9 kmh 29.67 in1004.7 mb 0.00 in0.0 mm 0.00 in0.0 mm 0.00 in0.0 mm
06:45 AM 56.9°F13.8°C 54.9°F12.7°C 97% 2.0 mph SW3.2 kmh SW 5.0 mph8.0 kmh 29.67 in1004.7 mb 0.00 in0.0 mm 0.00 in0.0 mm 0.00 in0.0 mm
06:47 AM 56.8°F13.8°C 54.8°F12.7°C 97% 3.0 mph SSW4.8 kmh SSW 5.0 mph8.0 kmh 29.66 in1004.4 mb 0.00 in0.0 mm 0.00 in0.0 mm 0.00 in0.0 mm
06:49 AM 56.9°F13.8°C 54.9°F12.7°C 97% 4.0 mph WSW6.4 kmh WSW 8.0 mph12.9 kmh 29.66 in1004.4 mb 0.00 in0.0 mm 0.00 in0.0 mm 0.00 in0.0 mm
06:51 AM 56.9°F13.8°C 54.9°F12.7°C 97% 1.0 mph S1.6 kmh S 8.0 mph12.9 kmh 29.66 in1004.4 mb 0.00 in0.0 mm 0.00 in0.0 mm 0.00 in0.0 mm
06:53 AM 56.9°F13.8°C 54.9°F12.7°C 97% 1.0 mph SW1.6 kmh SW 8.0 mph12.9 kmh 29.66 in1004.4 mb 0.00 in0.0 mm 0.00 in0.0 mm 0.00 in0.0 mm
06:55 AM 56.9°F13.8°C 54.9°F12.7°C 97% 1.0 mph S1.6 kmh S 8.0 mph12.9 kmh 29.66 in1004.4 mb 0.00 in0.0 mm 0.00 in0.0 mm 0.00 in0.0 mm
06:57 AM 56.9°F13.8°C 54.9°F12.7°C 97% 3.0 mph SW4.8 kmh SW 8.0 mph12.9 kmh 29.66 in1004.4 mb 0.00 in0.0 mm 0.00 in0.0 mm 0.00 in0.0 mm
06:59 AM 56.9°F13.8°C 54.9°F12.7°C 97% 1.0 mph WSW1.6 kmh WSW 8.0 mph12.9 kmh 29.66 in1004.4 mb 0.00 in0.0 mm 0.00 in0.0 mm 0.00 in0.0 mm
07:01 AM 56.9°F13.8°C 54.9°F12.7°C 97% 4.0 mph WNW6.4 kmh WNW 10.0 mph16.1 kmh 29.66 in1004.4 mb 0.00 in0.0 mm 0.00 in0.0 mm 0.00 in0.0 mm
07:03 AM 56.9°F13.8°C 54.9°F12.7°C 97% 1.0 mph SSW1.6 kmh SSW 10.0 mph16.1 kmh 29.66 in1004.4 mb 0.00 in0.0 mm 0.00 in0.0 mm 0.00 in0.0 mm
07:05 AM 56.9°F13.8°C 54.9°F12.7°C 97% 1.0 mph WSW1.6 kmh WSW 10.0 mph16.1 kmh 29.66 in1004.4 mb 0.00 in0.0 mm 0.00 in0.0 mm 0.00 in0.0 mm
07:07 AM 56.9°F13.8°C 54.9°F12.7°C 97% 1.0 mph SSW1.6 kmh SSW 10.0 mph16.1 kmh 29.66 in1004.4 mb 0.00 in0.0 mm 0.00 in0.0 mm 0.00 in0.0 mm
07:09 AM 56.9°F13.8°C 54.9°F12.7°C 97% 3.0 mph SE4.8 kmh SE 10.0 mph16.1 kmh 29.66 in1004.4 mb 0.00 in0.0 mm 0.00 in0.0 mm 0.00 in0.0 mm
07:11 AM 57.0°F13.9°C 55.0°F12.8°C 97% 2.0 mph SSW3.2 kmh SSW 10.0 mph16.1 kmh 29.66 in1004.4 mb 0.00 in0.0 mm 0.00 in0.0 mm 0.00 in0.0 mm
07:13 AM 57.0°F13.9°C 55.0°F12.8°C 97% 2.0 mph SE3.2 kmh SE 10.0 mph16.1 kmh 29.66 in1004.4 mb 0.00 in0.0 mm 0.00 in0.0 mm 0.00 in0.0 mm
07:15 AM 57.0°F13.9°C 55.0°F12.8°C 97% 2.0 mph S3.2 kmh S 10.0 mph16.1 kmh 29.66 in1004.4 mb 0.00 in0.0 mm 0.00 in0.0 mm 0.00 in0.0 mm
07:17 AM 57.0°F13.9°C 55.0°F12.8°C 97% 1.0 mph SW1.6 kmh SW 10.0 mph16.1 kmh 29.66 in1004.4 mb 0.00 in0.0 mm 0.00 in0.0 mm 0.00 in0.0 mm
07:19 AM 57.0°F13.9°C 55.0°F12.8°C 97% Calm Calm 10.0 mph16.1 kmh 29.66 in1004.4 mb 0.00 in0.0 mm 0.00 in0.0 mm 0.00 in0.0 mm
07:21 AM 57.0°F13.9°C 55.0°F12.8°C 97% 4.0 mph WSW6.4 kmh WSW 9.0 mph14.5 kmh 29.66 in1004.4 mb 0.00 in0.0 mm 0.00 in0.0 mm 0.00 in0.0 mm
07:23 AM 57.0°F13.9°C 55.0°F12.8°C 97% 6.0 mph SW9.7 kmh SW 9.0 mph14.5 kmh 29.66 in1004.4 mb 0.00 in0.0 mm 0.00 in0.0 mm 0.00 in0.0 mm
07:25 AM 57.1°F13.9°C 55.1°F12.8°C 97% 7.0 mph S11.3 kmh S 10.0 mph16.1 kmh 29.66 in1004.4 mb 0.00 in0.0 mm 0.00 in0.0 mm 0.00 in0.0 mm
07:27 AM 57.2°F14.0°C 55.2°F12.9°C 97% Calm Calm 10.0 mph16.1 kmh 29.66 in1004.4 mb 0.00 in0.0 mm 0.00 in0.0 mm 0.00 in0.0 mm
07:29 AM 57.2°F14.0°C 55.2°F12.9°C 97% 7.0 mph S11.3 kmh S 10.0 mph16.1 kmh 29.66 in1004.4 mb 0.00 in0.0 mm 0.00 in0.0 mm 0.00 in0.0 mm
07:31 AM 57.2°F14.0°C 55.2°F12.9°C 97% 1.0 mph S1.6 kmh S 10.0 mph16.1 kmh 29.66 in1004.4 mb 0.00 in0.0 mm 0.00 in0.0 mm 0.00 in0.0 mm
07:33 AM 57.1°F13.9°C 55.1°F12.8°C 97% 1.0 mph SSW1.6 kmh SSW 10.0 mph16.1 kmh 29.66 in1004.4 mb 0.00 in0.0 mm 0.00 in0.0 mm 0.00 in0.0 mm
07:35 AM 57.1°F13.9°C 55.1°F12.8°C 97% 1.0 mph SSW1.6 kmh SSW 10.0 mph16.1 kmh 29.66 in1004.4 mb 0.00 in0.0 mm 0.00 in0.0 mm 0.00 in0.0 mm
07:37 AM 57.1°F13.9°C 55.1°F12.8°C 97% Calm Calm 10.0 mph16.1 kmh 29.66 in1004.4 mb 0.00 in0.0 mm 0.00 in0.0 mm 0.00 in0.0 mm
07:39 AM 57.0°F13.9°C 55.0°F12.8°C 97% 8.0 mph S12.9 kmh S 11.0 mph17.7 kmh 29.66 in1004.4 mb 0.00 in0.0 mm 0.00 in0.0 mm 0.00 in0.0 mm
07:41 AM 57.1°F13.9°C 55.1°F12.8°C 97% 2.0 mph SW3.2 kmh SW 11.0 mph17.7 kmh 29.66 in1004.4 mb 0.00 in0.0 mm 0.00 in0.0 mm 0.00 in0.0 mm
07:43 AM 57.1°F13.9°C 55.1°F12.8°C 97% 3.0 mph SSW4.8 kmh SSW 11.0 mph17.7 kmh 29.66 in1004.4 mb 0.00 in0.0 mm 0.00 in0.0 mm 0.00 in0.0 mm
07:45 AM 57.1°F13.9°C 55.1°F12.8°C 97% Calm Calm 11.0 mph17.7 kmh 29.66 in1004.4 mb 0.00 in0.0 mm 0.00 in0.0 mm 0.00 in0.0 mm
07:47 AM 57.0°F13.9°C 55.0°F12.8°C 97% 1.0 mph W1.6 kmh W 11.0 mph17.7 kmh 29.66 in1004.4 mb 0.00 in0.0 mm 0.00 in0.0 mm 0.00 in0.0 mm
07:49 AM 57.0°F13.9°C 55.0°F12.8°C 97% 1.0 mph WNW1.6 kmh WNW 11.0 mph17.7 kmh 29.66 in1004.4 mb 0.00 in0.0 mm 0.00 in0.0 mm 0.00 in0.0 mm
07:51 AM 57.0°F13.9°C 55.0°F12.8°C 97% 1.0 mph WSW1.6 kmh WSW 11.0 mph17.7 kmh 29.66 in1004.4 mb 0.00 in0.0 mm 0.00 in0.0 mm 0.00 in0.0 mm
07:53 AM 56.9°F13.8°C 54.9°F12.7°C 97% Calm Calm 11.0 mph17.7 kmh 29.66 in1004.4 mb 0.00 in0.0 mm 0.00 in0.0 mm 0.00 in0.0 mm
07:55 AM 56.9°F13.8°C 54.9°F12.7°C 97% 1.0 mph SW1.6 kmh SW 11.0 mph17.7 kmh 29.66 in1004.4 mb 0.00 in0.0 mm 0.00 in0.0 mm 0.00 in0.0 mm
07:57 AM 56.9°F13.8°C 54.9°F12.7°C 97% 4.0 mph SSW6.4 kmh SSW 11.0 mph17.7 kmh 29.66 in1004.4 mb 0.00 in0.0 mm 0.00 in0.0 mm 0.00 in0.0 mm
07:59 AM 57.0°F13.9°C 55.0°F12.8°C 97% 2.0 mph SW3.2 kmh SW 7.0 mph11.3 kmh 29.66 in1004.4 mb 0.00 in0.0 mm 0.00 in0.0 mm 0.00 in0.0 mm
08:01 AM 57.0°F13.9°C 55.0°F12.8°C 97% Calm Calm 7.0 mph11.3 kmh 29.66 in1004.4 mb 0.00 in0.0 mm 0.00 in0.0 mm 0.00 in0.0 mm
08:03 AM 57.1°F13.9°C 55.1°F12.8°C 97% 3.0 mph WSW4.8 kmh WSW 7.0 mph11.3 kmh 29.66 in1004.4 mb 0.00 in0.0 mm 0.00 in0.0 mm 0.00 in0.0 mm
08:05 AM 57.0°F13.9°C 55.0°F12.8°C 97% 1.0 mph SW1.6 kmh SW 7.0 mph11.3 kmh 29.66 in1004.4 mb 0.00 in0.0 mm 0.00 in0.0 mm 0.00 in0.0 mm
08:07 AM 57.0°F13.9°C 55.0°F12.8°C 97% 1.0 mph SSE1.6 kmh SSE 7.0 mph11.3 kmh 29.66 in1004.4 mb 0.00 in0.0 mm 0.00 in0.0 mm 0.00 in0.0 mm
08:09 AM 56.9°F13.8°C 54.9°F12.7°C 97% 3.0 mph SSW4.8 kmh SSW 6.0 mph9.7 kmh 29.66 in1004.4 mb 0.00 in0.0 mm 0.00 in0.0 mm 0.00 in0.0 mm
08:11 AM 56.9°F13.8°C 54.9°F12.7°C 97% 2.0 mph SSW3.2 kmh SSW 6.0 mph9.7 kmh 29.66 in1004.4 mb 0.00 in0.0 mm 0.00 in0.0 mm 0.00 in0.0 mm
08:13 AM 56.9°F13.8°C 54.9°F12.7°C 97% 1.0 mph W1.6 kmh W 6.0 mph9.7 kmh 29.66 in1004.4 mb 0.00 in0.0 mm 0.00 in0.0 mm 0.00 in0.0 mm
08:15 AM 56.9°F13.8°C 54.9°F12.7°C 97% 2.0 mph S3.2 kmh S 6.0 mph9.7 kmh 29.66 in1004.4 mb 0.00 in0.0 mm 0.00 in0.0 mm 0.00 in0.0 mm
08:17 AM 56.9°F13.8°C 54.9°F12.7°C 97% 3.0 mph WSW4.8 kmh WSW 6.0 mph9.7 kmh 29.66 in1004.4 mb 0.00 in0.0 mm 0.00 in0.0 mm 0.00 in0.0 mm
08:19 AM 56.9°F13.8°C 54.9°F12.7°C 97% Calm Calm 6.0 mph9.7 kmh 29.66 in1004.4 mb 0.00 in0.0 mm 0.00 in0.0 mm 0.00 in0.0 mm
08:21 AM 56.9°F13.8°C 54.9°F12.7°C 97% 4.0 mph S6.4 kmh S 7.0 mph11.3 kmh 29.65 in1004.1 mb 0.00 in0.0 mm 0.00 in0.0 mm 0.00 in0.0 mm
08:23 AM 56.9°F13.8°C 54.9°F12.7°C 97% 2.0 mph SW3.2 kmh SW 8.0 mph12.9 kmh 29.65 in1004.1 mb 0.00 in0.0 mm 0.00 in0.0 mm 0.00 in0.0 mm
08:25 AM 56.9°F13.8°C 54.9°F12.7°C 97% 1.0 mph SW1.6 kmh SW 8.0 mph12.9 kmh 29.66 in1004.4 mb 0.00 in0.0 mm 0.00 in0.0 mm 0.00 in0.0 mm
08:27 AM 56.9°F13.8°C 54.9°F12.7°C 97% 2.0 mph SW3.2 kmh SW 8.0 mph12.9 kmh 29.65 in1004.1 mb 0.00 in0.0 mm 0.00 in0.0 mm 0.00 in0.0 mm
08:29 AM 56.9°F13.8°C 54.9°F12.7°C 97% 2.0 mph SW3.2 kmh SW 8.0 mph12.9 kmh 29.65 in1004.1 mb 0.00 in0.0 mm 0.00 in0.0 mm 0.00 in0.0 mm
08:31 AM 56.9°F13.8°C 54.9°F12.7°C 97% 2.0 mph S3.2 kmh S 8.0 mph12.9 kmh 29.65 in1004.1 mb 0.00 in0.0 mm 0.00 in0.0 mm 0.00 in0.0 mm
08:33 AM 56.9°F13.8°C 54.9°F12.7°C 97% 2.0 mph SSW3.2 kmh SSW 8.0 mph12.9 kmh 29.65 in1004.1 mb 0.00 in0.0 mm 0.00 in0.0 mm 0.00 in0.0 mm
08:35 AM 56.9°F13.8°C 54.9°F12.7°C 97% 2.0 mph WSW3.2 kmh WSW 8.0 mph12.9 kmh 29.65 in1004.1 mb 0.00 in0.0 mm 0.00 in0.0 mm 0.00 in0.0 mm
08:37 AM 56.9°F13.8°C 54.9°F12.7°C 97% 5.0 mph WSW8.0 kmh WSW 9.0 mph14.5 kmh 29.65 in1004.1 mb 0.00 in0.0 mm 0.00 in0.0 mm 0.00 in0.0 mm
08:39 AM 56.9°F13.8°C 54.9°F12.7°C 97% 1.0 mph WSW1.6 kmh WSW 9.0 mph14.5 kmh 29.65 in1004.1 mb 0.00 in0.0 mm 0.00 in0.0 mm 0.00 in0.0 mm
08:41 AM 56.8°F13.8°C 54.8°F12.7°C 97% 3.0 mph S4.8 kmh S 9.0 mph14.5 kmh 29.65 in1004.1 mb 0.00 in0.0 mm 0.00 in0.0 mm 0.00 in0.0 mm
08:43 AM 56.8°F13.8°C 54.8°F12.7°C 97% 1.0 mph WSW1.6 kmh WSW 9.0 mph14.5 kmh 29.65 in1004.1 mb 0.00 in0.0 mm 0.00 in0.0 mm 0.00 in0.0 mm
08:45 AM 56.8°F13.8°C 54.8°F12.7°C 97% 2.0 mph SE3.2 kmh SE 9.0 mph14.5 kmh 29.65 in1004.1 mb 0.00 in0.0 mm 0.00 in0.0 mm 0.00 in0.0 mm
08:47 AM 56.8°F13.8°C 54.8°F12.7°C 97% 1.0 mph WSW1.6 kmh WSW 9.0 mph14.5 kmh 29.65 in1004.1 mb 0.00 in0.0 mm 0.00 in0.0 mm 0.00 in0.0 mm
08:49 AM 56.8°F13.8°C 54.8°F12.7°C 97% 1.0 mph WSW1.6 kmh WSW 9.0 mph14.5 kmh 29.65 in1004.1 mb 0.00 in0.0 mm 0.00 in0.0 mm 0.00 in0.0 mm
08:51 AM 56.8°F13.8°C 54.8°F12.7°C 97% 3.0 mph SSW4.8 kmh SSW 9.0 mph14.5 kmh 29.65 in1004.1 mb 0.00 in0.0 mm 0.00 in0.0 mm 0.00 in0.0 mm
08:53 AM 56.8°F13.8°C 54.8°F12.7°C 97% Calm Calm 9.0 mph14.5 kmh 29.65 in1004.1 mb 0.00 in0.0 mm 0.00 in0.0 mm 0.00 in0.0 mm
08:55 AM 56.8°F13.8°C 54.8°F12.7°C 97% Calm Calm 9.0 mph14.5 kmh 29.65 in1004.1 mb 0.00 in0.0 mm 0.00 in0.0 mm 0.00 in0.0 mm
08:57 AM 56.8°F13.8°C 54.8°F12.7°C 97% 2.0 mph WSW3.2 kmh WSW 7.0 mph11.3 kmh 29.65 in1004.1 mb 0.00 in0.0 mm 0.00 in0.0 mm 0.00 in0.0 mm
08:59 AM 56.8°F13.8°C 54.8°F12.7°C 97% 1.0 mph NNW1.6 kmh NNW 7.0 mph11.3 kmh 29.65 in1004.1 mb 0.00 in0.0 mm 0.00 in0.0 mm 0.00 in0.0 mm
09:01 AM 56.8°F13.8°C 54.8°F12.7°C 97% 3.0 mph SW4.8 kmh SW 7.0 mph11.3 kmh 29.65 in1004.1 mb 0.00 in0.0 mm 0.00 in0.0 mm 0.00 in0.0 mm
09:03 AM 56.8°F13.8°C 54.8°F12.7°C 97% 2.0 mph SSW3.2 kmh SSW 7.0 mph11.3 kmh 29.65 in1004.1 mb 0.00 in0.0 mm 0.00 in0.0 mm 0.00 in0.0 mm
09:05 AM 56.8°F13.8°C 54.8°F12.7°C 97% 3.0 mph WSW4.8 kmh WSW 7.0 mph11.3 kmh 29.65 in1004.1 mb 0.00 in0.0 mm 0.00 in0.0 mm 0.00 in0.0 mm
09:07 AM 56.8°F13.8°C 54.8°F12.7°C 97% 2.0 mph S3.2 kmh S 7.0 mph11.3 kmh 29.65 in1004.1 mb 0.00 in0.0 mm 0.00 in0.0 mm 0.00 in0.0 mm
09:09 AM 56.9°F13.8°C 54.9°F12.7°C 97% 4.0 mph SW6.4 kmh SW 7.0 mph11.3 kmh 29.65 in1004.1 mb 0.00 in0.0 mm 0.00 in0.0 mm 0.00 in0.0 mm
09:11 AM 56.9°F13.8°C 54.9°F12.7°C 97% 1.0 mph SW1.6 kmh SW 7.0 mph11.3 kmh 29.64 in1003.7 mb 0.00 in0.0 mm 0.00 in0.0 mm 0.00 in0.0 mm
09:13 AM 56.9°F13.8°C 54.9°F12.7°C 97% Calm Calm 7.0 mph11.3 kmh 29.64 in1003.7 mb 0.00 in0.0 mm 0.00 in0.0 mm 0.00 in0.0 mm
09:15 AM 57.0°F13.9°C 55.0°F12.8°C 97% Calm Calm 7.0 mph11.3 kmh 29.64 in1003.7 mb 0.00 in0.0 mm 0.00 in0.0 mm 0.00 in0.0 mm
09:17 AM 57.0°F13.9°C 55.0°F12.8°C 97% Calm Calm 7.0 mph11.3 kmh 29.64 in1003.7 mb 0.00 in0.0 mm 0.00 in0.0 mm 0.00 in0.0 mm
09:19 AM 57.0°F13.9°C 55.0°F12.8°C 97% 5.0 mph SW8.0 kmh SW 8.0 mph12.9 kmh 29.64 in1003.7 mb 0.00 in0.0 mm 0.00 in0.0 mm 0.00 in0.0 mm
09:21 AM 57.0°F13.9°C 55.0°F12.8°C 97% 1.0 mph WSW1.6 kmh WSW 8.0 mph12.9 kmh 29.64 in1003.7 mb 0.00 in0.0 mm 0.00 in0.0 mm 0.00 in0.0 mm
09:23 AM 57.0°F13.9°C 55.0°F12.8°C 97% Calm Calm 8.0 mph12.9 kmh 29.64 in1003.7 mb 0.00 in0.0 mm 0.00 in0.0 mm 0.00 in0.0 mm
09:25 AM 57.0°F13.9°C 55.0°F12.8°C 97% 7.0 mph SSW11.3 kmh SSW 8.0 mph12.9 kmh 29.64 in1003.7 mb 0.00 in0.0 mm 0.00 in0.0 mm 0.00 in0.0 mm
09:27 AM 57.1°F13.9°C 55.1°F12.8°C 97% 2.0 mph SW3.2 kmh SW 8.0 mph12.9 kmh 29.64 in1003.7 mb 0.00 in0.0 mm 0.00 in0.0 mm 0.00 in0.0 mm
09:29 AM 57.1°F13.9°C 55.1°F12.8°C 97% Calm Calm 8.0 mph12.9 kmh 29.64 in1003.7 mb 0.00 in0.0 mm 0.00 in0.0 mm 0.00 in0.0 mm
09:31 AM 57.1°F13.9°C 55.1°F12.8°C 97% Calm Calm 8.0 mph12.9 kmh 29.64 in1003.7 mb 0.00 in0.0 mm 0.00 in0.0 mm 0.00 in0.0 mm
09:33 AM 57.0°F13.9°C 55.0°F12.8°C 97% 1.0 mph SW1.6 kmh SW 8.0 mph12.9 kmh 29.64 in1003.7 mb 0.00 in0.0 mm 0.00 in0.0 mm 0.00 in0.0 mm
09:35 AM 57.0°F13.9°C 55.0°F12.8°C 97% 1.0 mph S1.6 kmh S 8.0 mph12.9 kmh 29.64 in1003.7 mb 0.00 in0.0 mm 0.00 in0.0 mm 0.00 in0.0 mm
09:37 AM 57.0°F13.9°C 55.0°F12.8°C 97% Calm Calm 8.0 mph12.9 kmh 29.64 in1003.7 mb 0.00 in0.0 mm 0.00 in0.0 mm 0.00 in0.0 mm
09:39 AM 56.9°F13.8°C 54.9°F12.7°C 97% 3.0 mph SW4.8 kmh SW 8.0 mph12.9 kmh 29.64 in1003.7 mb 0.00 in0.0 mm 0.00 in0.0 mm 0.00 in0.0 mm
09:41 AM 56.9°F13.8°C 54.9°F12.7°C 97% Calm Calm 8.0 mph12.9 kmh 29.64 in1003.7 mb 0.00 in0.0 mm 0.00 in0.0 mm 0.00 in0.0 mm
09:43 AM 56.9°F13.8°C 54.9°F12.7°C 97% Calm Calm 8.0 mph12.9 kmh 29.64 in1003.7 mb 0.00 in0.0 mm 0.00 in0.0 mm 0.00 in0.0 mm
09:45 AM 56.9°F13.8°C 54.9°F12.7°C 97% Calm Calm 8.0 mph12.9 kmh 29.64 in1003.7 mb 0.00 in0.0 mm 0.00 in0.0 mm 0.00 in0.0 mm
09:47 AM 56.9°F13.8°C 54.9°F12.7°C 97% 1.0 mph S1.6 kmh S 8.0 mph12.9 kmh 29.64 in1003.7 mb 0.00 in0.0 mm 0.00 in0.0 mm 0.00 in0.0 mm
09:49 AM 56.8°F13.8°C 54.8°F12.7°C 97% 2.0 mph WSW3.2 kmh WSW 8.0 mph12.9 kmh 29.64 in1003.7 mb 0.00 in0.0 mm 0.00 in0.0 mm 0.00 in0.0 mm
09:51 AM 56.9°F13.8°C 54.9°F12.7°C 97% 5.0 mph SW8.0 kmh SW 5.0 mph8.0 kmh 29.64 in1003.7 mb 0.00 in0.0 mm 0.00 in0.0 mm 0.00 in0.0 mm
09:53 AM 56.8°F13.8°C 54.8°F12.7°C 97% Calm Calm 5.0 mph8.0 kmh 29.64 in1003.7 mb 0.00 in0.0 mm 0.00 in0.0 mm 0.00 in0.0 mm
09:55 AM 56.9°F13.8°C 54.9°F12.7°C 97% Calm Calm 5.0 mph8.0 kmh 29.64 in1003.7 mb 0.00 in0.0 mm 0.00 in0.0 mm 0.00 in0.0 mm
09:57 AM 56.9°F13.8°C 54.9°F12.7°C 97% 1.0 mph S1.6 kmh S 5.0 mph8.0 kmh 29.64 in1003.7 mb 0.00 in0.0 mm 0.00 in0.0 mm 0.00 in0.0 mm
09:59 AM 56.9°F13.8°C 54.9°F12.7°C 97% 3.0 mph SW4.8 kmh SW 5.0 mph8.0 kmh 29.64 in1003.7 mb 0.00 in0.0 mm 0.00 in0.0 mm 0.00 in0.0 mm
10:01 AM 56.9°F13.8°C 54.9°F12.7°C 97% Calm Calm 5.0 mph8.0 kmh 29.64 in1003.7 mb 0.00 in0.0 mm 0.00 in0.0 mm 0.00 in0.0 mm
10:03 AM 56.9°F13.8°C 54.9°F12.7°C 97% Calm Calm 5.0 mph8.0 kmh 29.64 in1003.7 mb 0.00 in0.0 mm 0.00 in0.0 mm 0.00 in0.0 mm
10:05 AM 56.9°F13.8°C 54.9°F12.7°C 97% 1.0 mph S1.6 kmh S 5.0 mph8.0 kmh 29.64 in1003.7 mb 0.00 in0.0 mm 0.00 in0.0 mm 0.00 in0.0 mm
10:07 AM 56.9°F13.8°C 54.9°F12.7°C 97% 7.0 mph SW11.3 kmh SW 11.0 mph17.7 kmh 29.64 in1003.7 mb 0.00 in0.0 mm 0.00 in0.0 mm 0.00 in0.0 mm
10:09 AM 57.0°F13.9°C 55.0°F12.8°C 97% 1.0 mph NNW1.6 kmh NNW 11.0 mph17.7 kmh 29.64 in1003.7 mb 0.00 in0.0 mm 0.00 in0.0 mm 0.00 in0.0 mm
10:11 AM 57.1°F13.9°C 55.1°F12.8°C 97% 2.0 mph SW3.2 kmh SW 11.0 mph17.7 kmh 29.64 in1003.7 mb 0.00 in0.0 mm 0.00 in0.0 mm 0.00 in0.0 mm
10:13 AM 57.1°F13.9°C 55.1°F12.8°C 97% 4.0 mph S6.4 kmh S 11.0 mph17.7 kmh 29.64 in1003.7 mb 0.00 in0.0 mm 0.00 in0.0 mm 0.01 in0.3 mm
10:15 AM 57.2°F14.0°C 55.2°F12.9°C 97% 2.0 mph NW3.2 kmh NW 11.0 mph17.7 kmh 29.64 in1003.7 mb 0.22 in5.6 mm 6.60 in167.6 mm 0.02 in0.5 mm
10:17 AM 57.2°F14.0°C 55.2°F12.9°C 97% 3.0 mph SW4.8 kmh SW 11.0 mph17.7 kmh 29.64 in1003.7 mb 0.21 in5.3 mm 0.00 in0.0 mm 0.02 in0.5 mm
10:19 AM 57.2°F14.0°C 55.2°F12.9°C 97% 3.0 mph SW4.8 kmh SW 11.0 mph17.7 kmh 29.64 in1003.7 mb 0.12 in3.0 mm 0.00 in0.0 mm 0.02 in0.5 mm
10:21 AM 57.2°F14.0°C 55.2°F12.9°C 97% 6.0 mph W9.7 kmh W 11.0 mph17.7 kmh 29.64 in1003.7 mb 0.11 in2.8 mm 0.00 in0.0 mm 0.03 in0.8 mm
10:23 AM 57.3°F14.1°C 55.3°F12.9°C 97% 7.0 mph SSW11.3 kmh SSW 11.0 mph17.7 kmh 29.65 in1004.1 mb 0.11 in2.8 mm 0.00 in0.0 mm 0.03 in0.8 mm
10:25 AM 57.3°F14.1°C 55.3°F12.9°C 97% 6.0 mph W9.7 kmh W 12.0 mph19.3 kmh 29.64 in1003.7 mb 0.11 in2.8 mm 0.00 in0.0 mm 0.03 in0.8 mm
10:27 AM 57.4°F14.1°C 55.4°F13.0°C 97% 1.0 mph WSW1.6 kmh WSW 12.0 mph19.3 kmh 29.65 in1004.1 mb 0.10 in2.5 mm 0.00 in0.0 mm 0.04 in1.0 mm
10:29 AM 57.4°F14.1°C 55.4°F13.0°C 97% 1.0 mph SSW1.6 kmh SSW 12.0 mph19.3 kmh 29.64 in1003.7 mb 0.10 in2.5 mm 0.00 in0.0 mm 0.04 in1.0 mm
10:31 AM 57.4°F14.1°C 55.4°F13.0°C 97% 2.0 mph S3.2 kmh S 12.0 mph19.3 kmh 29.64 in1003.7 mb 0.10 in2.5 mm 0.00 in0.0 mm 0.04 in1.0 mm
10:33 AM 57.4°F14.1°C 55.4°F13.0°C 97% 3.0 mph W4.8 kmh W 16.0 mph25.7 kmh 29.65 in1004.1 mb 0.10 in2.5 mm 0.00 in0.0 mm 0.05 in1.3 mm
10:35 AM 57.5°F14.2°C 55.5°F13.1°C 97% 3.0 mph WSW4.8 kmh WSW 16.0 mph25.7 kmh 29.65 in1004.1 mb 0.10 in2.5 mm 0.00 in0.0 mm 0.05 in1.3 mm
10:37 AM 57.5°F14.2°C 55.5°F13.1°C 97% 4.0 mph W6.4 kmh W 16.0 mph25.7 kmh 29.65 in1004.1 mb 0.12 in3.0 mm 0.60 in15.2 mm 0.05 in1.3 mm
10:39 AM 57.5°F14.2°C 55.5°F13.1°C 97% 10.0 mph NW16.1 kmh NW 16.0 mph25.7 kmh 29.66 in1004.4 mb 0.31 in7.9 mm 5.70 in144.8 mm 0.06 in1.5 mm
10:41 AM 56.2°F13.4°C 53.6°F12.0°C 95% 2.0 mph NW3.2 kmh NW 16.0 mph25.7 kmh 29.66 in1004.4 mb 0.59 in15.0 mm 8.40 in213.4 mm 0.08 in2.0 mm
10:43 AM 54.9°F12.7°C 52.0°F11.1°C 94% 4.0 mph NW6.4 kmh NW 16.0 mph25.7 kmh 29.66 in1004.4 mb 0.80 in20.3 mm 6.30 in160.0 mm 0.11 in2.8 mm
10:45 AM 53.3°F11.8°C 50.1°F10.1°C 93% 5.0 mph NW8.0 kmh NW 16.0 mph25.7 kmh 29.67 in1004.7 mb 0.35 in8.9 mm 0.00 in0.0 mm 0.12 in3.0 mm
10:47 AM 51.7°F10.9°C 48.0°F8.9°C 91% 5.0 mph NW8.0 kmh NW 16.0 mph25.7 kmh 29.67 in1004.7 mb 0.52 in13.2 mm 5.10 in129.5 mm 0.14 in3.6 mm
10:49 AM 50.2°F10.1°C 46.5°F8.1°C 91% 7.0 mph NW11.3 kmh NW 16.0 mph25.7 kmh 29.67 in1004.7 mb 0.33 in8.4 mm 0.00 in0.0 mm 0.15 in3.8 mm
10:51 AM 49.0°F9.4°C 45.3°F7.4°C 91% 3.0 mph NW4.8 kmh NW 16.0 mph25.7 kmh 29.67 in1004.7 mb 0.25 in6.4 mm 0.00 in0.0 mm 0.16 in4.1 mm
10:53 AM 48.1°F8.9°C 44.7°F7.1°C 92% 6.0 mph NW9.7 kmh NW 14.0 mph22.5 kmh 29.68 in1005.1 mb 0.23 in5.8 mm 0.00 in0.0 mm 0.16 in4.1 mm
10:55 AM 47.4°F8.6°C 44.0°F6.7°C 92% 5.0 mph N8.0 kmh N 14.0 mph22.5 kmh 29.68 in1005.1 mb 0.13 in3.3 mm 0.00 in0.0 mm 0.16 in4.1 mm
10:57 AM 46.9°F8.3°C 43.8°F6.6°C 93% 3.0 mph NE4.8 kmh NE 14.0 mph22.5 kmh 29.68 in1005.1 mb 0.10 in2.5 mm 0.00 in0.0 mm 0.16 in4.1 mm
10:59 AM 46.5°F8.1°C 43.4°F6.3°C 93% 7.0 mph WNW11.3 kmh WNW 14.0 mph22.5 kmh 29.68 in1005.1 mb 0.10 in2.5 mm 0.00 in0.0 mm 0.17 in4.3 mm
11:01 AM 46.2°F7.9°C 43.1°F6.2°C 93% 8.0 mph NW12.9 kmh NW 14.0 mph22.5 kmh 29.69 in1005.4 mb 0.19 in4.8 mm 0.09 in2.3 mm 0.18 in4.6 mm
11:03 AM 45.9°F7.7°C 43.1°F6.2°C 94% 6.0 mph NW9.7 kmh NW 12.0 mph19.3 kmh 29.68 in1005.1 mb 0.19 in4.8 mm 0.00 in0.0 mm 0.18 in4.6 mm
11:05 AM 45.5°F7.5°C 42.4°F5.8°C 93% 3.0 mph NNW4.8 kmh NNW 12.0 mph19.3 kmh 29.69 in1005.4 mb 0.12 in3.0 mm 0.00 in0.0 mm 0.18 in4.6 mm
11:07 AM 45.1°F7.3°C 42.1°F5.6°C 93% 4.0 mph N6.4 kmh N 15.0 mph24.1 kmh 29.68 in1005.1 mb 0.08 in2.0 mm 0.00 in0.0 mm 0.18 in4.6 mm
11:09 AM 44.7°F7.1°C 41.7°F5.4°C 93% 14.0 mph NW22.5 kmh NW 15.0 mph24.1 kmh 29.68 in1005.1 mb 0.07 in1.8 mm 0.00 in0.0 mm 0.18 in4.6 mm
11:11 AM 44.5°F6.9°C 41.5°F5.3°C 93% 3.0 mph NW4.8 kmh NW 15.0 mph24.1 kmh 29.69 in1005.4 mb 0.05 in1.3 mm 0.00 in0.0 mm 0.18 in4.6 mm
11:13 AM 44.3°F6.8°C 41.6°F5.3°C 94% 3.0 mph 4.8 kmh 15.0 mph24.1 kmh 29.69 in1005.4 mb 0.05 in1.3 mm 0.00 in0.0 mm 0.19 in4.8 mm
11:15 AM 44.1°F6.7°C 41.4°F5.2°C 94% 4.0 mph NNE6.4 kmh NNE 15.0 mph24.1 kmh 29.69 in1005.4 mb 0.05 in1.3 mm 0.00 in0.0 mm 0.19 in4.8 mm
11:17 AM 44.0°F6.7°C 41.3°F5.2°C 94% 2.0 mph NNE3.2 kmh NNE 15.0 mph24.1 kmh 29.69 in1005.4 mb 0.05 in1.3 mm 0.00 in0.0 mm 0.19 in4.8 mm
11:19 AM 43.8°F6.6°C 41.1°F5.1°C 94% 3.0 mph NNW4.8 kmh NNW 15.0 mph24.1 kmh 29.70 in1005.8 mb 0.05 in1.3 mm 0.00 in0.0 mm 0.19 in4.8 mm
11:21 AM 43.7°F6.5°C 41.0°F5.0°C 94% 4.0 mph NW6.4 kmh NW 15.0 mph24.1 kmh 29.70 in1005.8 mb 0.05 in1.3 mm 0.00 in0.0 mm 0.19 in4.8 mm
11:23 AM 43.6°F6.4°C 40.9°F4.9°C 94% 4.0 mph NNW6.4 kmh NNW 15.0 mph24.1 kmh 29.70 in1005.8 mb 0.06 in1.5 mm 0.30 in7.6 mm 0.20 in5.1 mm
11:25 AM 43.4°F6.3°C 40.7°F4.8°C 94% 5.0 mph NW8.0 kmh NW 15.0 mph24.1 kmh 29.70 in1005.8 mb 0.06 in1.5 mm 0.00 in0.0 mm 0.20 in5.1 mm
11:27 AM 43.3°F6.3°C 40.6°F4.8°C 94% 5.0 mph NW8.0 kmh NW 11.0 mph17.7 kmh 29.70 in1005.8 mb 0.06 in1.5 mm 0.00 in0.0 mm 0.20 in5.1 mm
11:29 AM 43.2°F6.2°C 40.5°F4.7°C 94% 6.0 mph NE9.7 kmh NE 11.0 mph17.7 kmh 29.70 in1005.8 mb 0.10 in2.5 mm 1.20 in30.5 mm 0.21 in5.3 mm
11:31 AM 43.2°F6.2°C 40.5°F4.7°C 94% 2.0 mph NE3.2 kmh NE 11.0 mph17.7 kmh 29.70 in1005.8 mb 0.17 in4.3 mm 2.10 in53.3 mm 0.21 in5.3 mm
11:33 AM 43.1°F6.2°C 40.4°F4.7°C 94% 4.0 mph NW6.4 kmh NW 11.0 mph17.7 kmh 29.71 in1006.1 mb 0.17 in4.3 mm 0.00 in0.0 mm 0.22 in5.6 mm
11:35 AM 43.1°F6.2°C 40.4°F4.7°C 94% 3.0 mph N4.8 kmh N 16.0 mph25.7 kmh 29.70 in1005.8 mb 0.15 in3.8 mm 0.00 in0.0 mm 0.22 in5.6 mm
11:37 AM 43.0°F6.1°C 40.6°F4.8°C 95% 2.0 mph NE3.2 kmh NE 16.0 mph25.7 kmh 29.70 in1005.8 mb 0.13 in3.3 mm 0.00 in0.0 mm 0.23 in5.8 mm
11:39 AM 43.0°F6.1°C 40.6°F4.8°C 95% 4.0 mph WNW6.4 kmh WNW 16.0 mph25.7 kmh 29.70 in1005.8 mb 0.13 in3.3 mm 0.00 in0.0 mm 0.23 in5.8 mm
11:41 AM 42.9°F6.1°C 40.5°F4.7°C 95% 7.0 mph NW11.3 kmh NW 16.0 mph25.7 kmh 29.70 in1005.8 mb 0.14 in3.6 mm 0.30 in7.6 mm 0.24 in6.1 mm
11:43 AM 42.9°F6.1°C 40.5°F4.7°C 95% 9.0 mph NNW14.5 kmh NNW 16.0 mph25.7 kmh 29.70 in1005.8 mb 0.14 in3.6 mm 0.00 in0.0 mm 0.24 in6.1 mm
11:45 AM 42.8°F6.0°C 40.4°F4.7°C 95% 3.0 mph NNE4.8 kmh NNE 16.0 mph25.7 kmh 29.70 in1005.8 mb 0.13 in3.3 mm 0.00 in0.0 mm 0.24 in6.1 mm
11:47 AM 42.9°F6.1°C 40.5°F4.7°C 95% 4.0 mph N6.4 kmh N 16.0 mph25.7 kmh 29.70 in1005.8 mb 0.09 in2.3 mm 0.00 in0.0 mm 0.24 in6.1 mm
11:49 AM 42.8°F6.0°C 40.4°F4.7°C 95% 4.0 mph NW6.4 kmh NW 16.0 mph25.7 kmh 29.70 in1005.8 mb 0.07 in1.8 mm 0.00 in0.0 mm 0.24 in6.1 mm
11:51 AM 42.8°F6.0°C 40.4°F4.7°C 95% 2.0 mph NNE3.2 kmh NNE 16.0 mph25.7 kmh 29.70 in1005.8 mb 0.05 in1.3 mm 0.00 in0.0 mm 0.24 in6.1 mm
11:53 AM 42.9°F6.1°C 40.5°F4.7°C 95% 1.0 mph NNW1.6 kmh NNW 16.0 mph25.7 kmh 29.70 in1005.8 mb 0.05 in1.3 mm 0.00 in0.0 mm 0.25 in6.4 mm
11:55 AM 42.9°F6.1°C 40.5°F4.7°C 95% 11.0 mph N17.7 kmh N 11.0 mph17.7 kmh 29.71 in1006.1 mb 0.05 in1.3 mm 0.00 in0.0 mm 0.25 in6.4 mm
11:57 AM 42.9°F6.1°C 40.5°F4.7°C 95% 3.0 mph NW4.8 kmh NW 11.0 mph17.7 kmh 29.71 in1006.1 mb 0.05 in1.3 mm 0.00 in0.0 mm 0.25 in6.4 mm
11:59 AM 42.9°F6.1°C 40.5°F4.7°C 95% 4.0 mph WNW6.4 kmh WNW 11.0 mph17.7 kmh 29.72 in1006.4 mb 0.05 in1.3 mm 0.00 in0.0 mm 0.25 in6.4 mm
12:01 PM 42.8°F6.0°C 40.4°F4.7°C 95% 3.0 mph N4.8 kmh N 11.0 mph17.7 kmh 29.72 in1006.4 mb 0.05 in1.3 mm 0.00 in0.0 mm 0.25 in6.4 mm
12:03 PM 42.9°F6.1°C 40.5°F4.7°C 95% 2.0 mph NW3.2 kmh NW 11.0 mph17.7 kmh 29.72 in1006.4 mb 0.06 in1.5 mm 0.30 in7.6 mm 0.26 in6.6 mm
12:05 PM 42.8°F6.0°C 40.4°F4.7°C 95% 3.0 mph NE4.8 kmh NE 11.0 mph17.7 kmh 29.72 in1006.4 mb 0.06 in1.5 mm 0.00 in0.0 mm 0.26 in6.6 mm
12:07 PM 42.8°F6.0°C 40.4°F4.7°C 95% 4.0 mph NNE6.4 kmh NNE 11.0 mph17.7 kmh 29.72 in1006.4 mb 0.06 in1.5 mm 0.00 in0.0 mm 0.26 in6.6 mm
12:09 PM 42.8°F6.0°C 40.4°F4.7°C 95% 3.0 mph NE4.8 kmh NE 11.0 mph17.7 kmh 29.72 in1006.4 mb 0.06 in1.5 mm 0.00 in0.0 mm 0.26 in6.6 mm
12:11 PM 42.8°F6.0°C 40.4°F4.7°C 95% 9.0 mph NNW14.5 kmh NNW 12.0 mph19.3 kmh 29.72 in1006.4 mb 0.06 in1.5 mm 0.00 in0.0 mm 0.26 in6.6 mm
12:13 PM 42.6°F5.9°C 40.2°F4.6°C 95% 10.0 mph N16.1 kmh N 14.0 mph22.5 kmh 29.71 in1006.1 mb 0.06 in1.5 mm 0.00 in0.0 mm 0.26 in6.6 mm
12:15 PM 42.5°F5.8°C 40.1°F4.5°C 95% 13.0 mph 20.9 kmh 14.0 mph22.5 kmh 29.72 in1006.4 mb 0.05 in1.3 mm 0.00 in0.0 mm 0.26 in6.6 mm
12:17 PM 42.4°F5.8°C 39.7°F4.3°C 94% 9.0 mph NE14.5 kmh NE 14.0 mph22.5 kmh 29.72 in1006.4 mb 0.04 in1.0 mm 0.00 in0.0 mm 0.26 in6.6 mm
12:19 PM 42.3°F5.7°C 39.6°F4.2°C 94% 7.0 mph NNE11.3 kmh NNE 14.0 mph22.5 kmh 29.72 in1006.4 mb 0.04 in1.0 mm 0.00 in0.0 mm 0.26 in6.6 mm
12:21 PM 42.1°F5.6°C 39.4°F4.1°C 94% 9.0 mph E14.5 kmh E 14.0 mph22.5 kmh 29.72 in1006.4 mb 0.00 in0.0 mm 0.00 in0.0 mm 0.26 in6.6 mm
12:23 PM 42.0°F5.6°C 39.3°F4.1°C 94% 8.0 mph N12.9 kmh N 14.0 mph22.5 kmh 29.72 in1006.4 mb 0.00 in0.0 mm 0.00 in0.0 mm 0.26 in6.6 mm
12:25 PM 41.9°F5.5°C 39.2°F4.0°C 94% 6.0 mph N9.7 kmh N 14.0 mph22.5 kmh 29.72 in1006.4 mb 0.00 in0.0 mm 0.00 in0.0 mm 0.26 in6.6 mm
12:27 PM 41.9°F5.5°C 39.2°F4.0°C 94% 8.0 mph NNE12.9 kmh NNE 15.0 mph24.1 kmh 29.71 in1006.1 mb 0.00 in0.0 mm 0.00 in0.0 mm 0.27 in6.9 mm
12:29 PM 41.8°F5.4°C 39.1°F3.9°C 94% 4.0 mph N6.4 kmh N 15.0 mph24.1 kmh 29.71 in1006.1 mb 0.00 in0.0 mm 0.00 in0.0 mm 0.27 in6.9 mm
12:31 PM 41.7°F5.4°C 39.0°F3.9°C 94% 1.0 mph NW1.6 kmh NW 15.0 mph24.1 kmh 29.71 in1006.1 mb 0.00 in0.0 mm 0.00 in0.0 mm 0.27 in6.9 mm
12:33 PM 41.6°F5.3°C 38.9°F3.8°C 94% 4.0 mph NNE6.4 kmh NNE 15.0 mph24.1 kmh 29.71 in1006.1 mb 0.00 in0.0 mm 0.00 in0.0 mm 0.27 in6.9 mm
12:35 PM 41.6°F5.3°C 38.9°F3.8°C 94% 13.0 mph NE20.9 kmh NE 15.0 mph24.1 kmh 29.71 in1006.1 mb 0.00 in0.0 mm 0.00 in0.0 mm 0.27 in6.9 mm
12:37 PM 41.4°F5.2°C 38.7°F3.7°C 94% 11.0 mph NE17.7 kmh NE 16.0 mph25.7 kmh 29.71 in1006.1 mb 0.00 in0.0 mm 0.00 in0.0 mm 0.27 in6.9 mm
12:39 PM 41.3°F5.2°C 38.6°F3.7°C 94% 5.0 mph NE8.0 kmh NE 16.0 mph25.7 kmh 29.71 in1006.1 mb 0.00 in0.0 mm 0.00 in0.0 mm 0.27 in6.9 mm
12:41 PM 41.1°F5.1°C 38.4°F3.6°C 94% 5.0 mph N8.0 kmh N 16.0 mph25.7 kmh 29.71 in1006.1 mb 0.00 in0.0 mm 0.00 in0.0 mm 0.27 in6.9 mm
12:43 PM 41.1°F5.1°C 38.1°F3.4°C 93% 8.0 mph NNE12.9 kmh NNE 16.0 mph25.7 kmh 29.72 in1006.4 mb 0.00 in0.0 mm 0.00 in0.0 mm 0.27 in6.9 mm
12:45 PM 41.0°F5.0°C 38.0°F3.3°C 93% 8.0 mph 12.9 kmh 16.0 mph25.7 kmh 29.72 in1006.4 mb 0.00 in0.0 mm 0.00 in0.0 mm 0.27 in6.9 mm
12:47 PM 40.9°F4.9°C 37.9°F3.3°C 93% 5.0 mph N8.0 kmh N 16.0 mph25.7 kmh 29.72 in1006.4 mb 0.00 in0.0 mm 0.00 in0.0 mm 0.28 in7.1 mm
12:49 PM 40.9°F4.9°C 38.2°F3.4°C 94% 8.0 mph N12.9 kmh N 16.0 mph25.7 kmh 29.72 in1006.4 mb 0.00 in0.0 mm 0.00 in0.0 mm 0.28 in7.1 mm
12:51 PM 40.7°F4.8°C 38.0°F3.3°C 94% 8.0 mph N12.9 kmh N 16.0 mph25.7 kmh 29.72 in1006.4 mb 0.00 in0.0 mm 0.00 in0.0 mm 0.28 in7.1 mm
12:53 PM 40.6°F4.8°C 37.6°F3.1°C 93% 5.0 mph NNW8.0 kmh NNW 16.0 mph25.7 kmh 29.72 in1006.4 mb 0.00 in0.0 mm 0.00 in0.0 mm 0.28 in7.1 mm
12:55 PM 40.5°F4.7°C 37.5°F3.1°C 93% 2.0 mph 3.2 kmh 16.0 mph25.7 kmh 29.72 in1006.4 mb 0.00 in0.0 mm 0.00 in0.0 mm 0.28 in7.1 mm
12:57 PM 40.3°F4.6°C 37.3°F2.9°C 93% 4.0 mph N6.4 kmh N 12.0 mph19.3 kmh 29.71 in1006.1 mb 0.00 in0.0 mm 0.00 in0.0 mm 0.28 in7.1 mm
12:59 PM 40.2°F4.6°C 37.2°F2.9°C 93% 10.0 mph NNW16.1 kmh NNW 12.0 mph19.3 kmh 29.71 in1006.1 mb 0.00 in0.0 mm 0.00 in0.0 mm 0.28 in7.1 mm
01:01 PM 39.9°F4.4°C 36.9°F2.7°C 93% 4.0 mph NNW6.4 kmh NNW 14.0 mph22.5 kmh 29.71 in1006.1 mb 0.00 in0.0 mm 0.00 in0.0 mm 0.28 in7.1 mm
01:03 PM 39.7°F4.3°C 36.7°F2.6°C 93% 6.0 mph NE9.7 kmh NE 14.0 mph22.5 kmh 29.72 in1006.4 mb 0.00 in0.0 mm 0.00 in0.0 mm 0.28 in7.1 mm
01:05 PM 39.5°F4.2°C 36.5°F2.5°C 93% 9.0 mph NNE14.5 kmh NNE 14.0 mph22.5 kmh 29.71 in1006.1 mb 0.00 in0.0 mm 0.00 in0.0 mm 0.29 in7.4 mm
01:07 PM 39.3°F4.1°C 36.3°F2.4°C 93% 3.0 mph ENE4.8 kmh ENE 14.0 mph22.5 kmh 29.71 in1006.1 mb 0.00 in0.0 mm 0.00 in0.0 mm 0.29 in7.4 mm
01:09 PM 39.2°F4.0°C 36.2°F2.3°C 93% 5.0 mph E8.0 kmh E 14.0 mph22.5 kmh 29.71 in1006.1 mb 0.00 in0.0 mm 0.00 in0.0 mm 0.29 in7.4 mm
01:11 PM 39.1°F3.9°C 36.1°F2.3°C 93% 6.0 mph WNW9.7 kmh WNW 14.0 mph22.5 kmh 29.72 in1006.4 mb 0.00 in0.0 mm 0.00 in0.0 mm 0.29 in7.4 mm
01:13 PM 38.9°F3.8°C 35.9°F2.2°C 93% 8.0 mph N12.9 kmh N 17.0 mph27.4 kmh 29.72 in1006.4 mb 0.00 in0.0 mm 0.00 in0.0 mm 0.29 in7.4 mm
01:15 PM 38.8°F3.8°C 35.8°F2.1°C 93% 8.0 mph NE12.9 kmh NE 17.0 mph27.4 kmh 29.73 in1006.8 mb 0.05 in1.3 mm 1.50 in38.1 mm 0.29 in7.4 mm
01:17 PM 38.7°F3.7°C 35.7°F2.1°C 93% 9.0 mph N14.5 kmh N 17.0 mph27.4 kmh 29.73 in1006.8 mb 0.05 in1.3 mm 0.00 in0.0 mm 0.30 in7.6 mm
01:19 PM 38.4°F3.6°C 35.4°F1.9°C 93% 7.0 mph NNE11.3 kmh NNE 17.0 mph27.4 kmh 29.73 in1006.8 mb 0.05 in1.3 mm 0.00 in0.0 mm 0.30 in7.6 mm
01:21 PM 38.3°F3.5°C 35.3°F1.8°C 93% 19.0 mph NE30.6 kmh NE 19.0 mph30.6 kmh 29.73 in1006.8 mb 0.12 in3.0 mm 2.10 in53.3 mm 0.31 in7.9 mm
01:23 PM 37.9°F3.3°C 34.7°F1.5°C 92% 6.0 mph NE9.7 kmh NE 19.0 mph30.6 kmh 29.74 in1007.1 mb 0.20 in5.1 mm 2.40 in61.0 mm 0.31 in7.9 mm
01:25 PM 37.7°F3.2°C 34.5°F1.4°C 92% 10.0 mph NNE16.1 kmh NNE 20.0 mph32.2 kmh 29.73 in1006.8 mb 0.20 in5.1 mm 0.00 in0.0 mm 0.32 in8.1 mm
01:27 PM 37.4°F3.0°C 34.2°F1.2°C 92% 12.0 mph NNE19.3 kmh NNE 20.0 mph32.2 kmh 29.74 in1007.1 mb 0.16 in4.1 mm 0.00 in0.0 mm 0.33 in8.4 mm
01:29 PM 37.2°F2.9°C 34.0°F1.1°C 92% 4.0 mph NE6.4 kmh NE 20.0 mph32.2 kmh 29.74 in1007.1 mb 0.16 in4.1 mm 0.00 in0.0 mm 0.33 in8.4 mm
01:31 PM 37.1°F2.8°C 33.9°F1.1°C 92% 7.0 mph NE11.3 kmh NE 20.0 mph32.2 kmh 29.74 in1007.1 mb 0.13 in3.3 mm 0.00 in0.0 mm 0.33 in8.4 mm
01:33 PM 37.0°F2.8°C 34.1°F1.2°C 93% 5.0 mph NNE8.0 kmh NNE 20.0 mph32.2 kmh 29.74 in1007.1 mb 0.12 in3.0 mm 0.00 in0.0 mm 0.34 in8.6 mm
01:35 PM 36.9°F2.7°C 34.0°F1.1°C 93% 2.0 mph NNE3.2 kmh NNE 20.0 mph32.2 kmh 29.74 in1007.1 mb 0.12 in3.0 mm 0.00 in0.0 mm 0.34 in8.6 mm
01:37 PM 36.8°F2.7°C 33.9°F1.1°C 93% 5.0 mph NE8.0 kmh NE 20.0 mph32.2 kmh 29.74 in1007.1 mb 0.11 in2.8 mm 0.00 in0.0 mm 0.34 in8.6 mm
01:39 PM 36.8°F2.7°C 33.9°F1.1°C 93% 5.0 mph NE8.0 kmh NE 20.0 mph32.2 kmh 29.73 in1006.8 mb 0.08 in2.0 mm 0.00 in0.0 mm 0.34 in8.6 mm
01:41 PM 36.6°F2.6°C 33.7°F0.9°C 93% 9.0 mph NE14.5 kmh NE 20.0 mph32.2 kmh 29.74 in1007.1 mb 0.06 in1.5 mm 0.00 in0.0 mm 0.34 in8.6 mm
01:43 PM 36.5°F2.5°C 33.6°F0.9°C 93% 4.0 mph NE6.4 kmh NE 20.0 mph32.2 kmh 29.74 in1007.1 mb 0.06 in1.5 mm 0.00 in0.0 mm 0.35 in8.9 mm
01:45 PM 36.4°F2.4°C 33.5°F0.8°C 93% 4.0 mph NE6.4 kmh NE 11.0 mph17.7 kmh 29.74 in1007.1 mb 0.06 in1.5 mm 0.00 in0.0 mm 0.35 in8.9 mm
01:47 PM 36.3°F2.4°C 33.4°F0.8°C 93% 9.0 mph ENE14.5 kmh ENE 13.0 mph20.9 kmh 29.74 in1007.1 mb 0.06 in1.5 mm 0.00 in0.0 mm 0.35 in8.9 mm
01:49 PM 36.2°F2.3°C 33.3°F0.7°C 93% 9.0 mph NE14.5 kmh NE 14.0 mph22.5 kmh 29.74 in1007.1 mb 0.06 in1.5 mm 0.00 in0.0 mm 0.35 in8.9 mm
01:51 PM 36.1°F2.3°C 33.2°F0.7°C 93% 12.0 mph NW19.3 kmh NW 18.0 mph29.0 kmh 29.74 in1007.1 mb 0.06 in1.5 mm 0.00 in0.0 mm 0.35 in8.9 mm
01:53 PM 35.9°F2.2°C 33.0°F0.6°C 93% 5.0 mph 8.0 kmh 18.0 mph29.0 kmh 29.74 in1007.1 mb 0.05 in1.3 mm 0.00 in0.0 mm 0.35 in8.9 mm
01:55 PM 35.7°F2.1°C 32.8°F0.4°C 93% 5.0 mph N8.0 kmh N 18.0 mph29.0 kmh 29.74 in1007.1 mb 0.05 in1.3 mm 0.00 in0.0 mm 0.36 in9.1 mm
01:57 PM 35.6°F2.0°C 32.7°F0.4°C 93% 8.0 mph N12.9 kmh N 18.0 mph29.0 kmh 29.74 in1007.1 mb 0.05 in1.3 mm 0.00 in0.0 mm 0.36 in9.1 mm
01:59 PM 35.5°F1.9°C 32.6°F0.3°C 93% 9.0 mph NE14.5 kmh NE 18.0 mph29.0 kmh 29.75 in1007.5 mb 0.13 in3.3 mm 2.40 in61.0 mm 0.37 in9.4 mm
02:01 PM 35.3°F1.8°C 32.4°F0.2°C 93% 16.0 mph NE25.7 kmh NE 18.0 mph29.0 kmh 29.73 in1006.8 mb 0.18 in4.6 mm 0.05 in1.3 mm 0.37 in9.4 mm
02:03 PM 35.2°F1.8°C 32.3°F0.2°C 93% 6.0 mph ENE9.7 kmh ENE 18.0 mph29.0 kmh 29.73 in1006.8 mb 0.18 in4.6 mm 0.00 in0.0 mm 0.38 in9.7 mm
02:05 PM 35.1°F1.7°C 32.2°F0.1°C 93% 5.0 mph NNE8.0 kmh NNE 18.0 mph29.0 kmh 29.73 in1006.8 mb 0.16 in4.1 mm 0.00 in0.0 mm 0.38 in9.7 mm
02:07 PM 35.0°F1.7°C 32.1°F0.1°C 93% 5.0 mph NE8.0 kmh NE 18.0 mph29.0 kmh 29.72 in1006.4 mb 0.16 in4.1 mm 0.00 in0.0 mm 0.39 in9.9 mm
02:09 PM 34.9°F1.6°C 32.0°F0.0°C 93% 5.0 mph NNE8.0 kmh NNE 18.0 mph29.0 kmh 29.73 in1006.8 mb 0.20 in5.1 mm 1.20 in30.5 mm 0.40 in10.2 mm
02:11 PM 34.8°F1.6°C 31.9°F-0.1°C 93% 9.0 mph N14.5 kmh N 18.0 mph29.0 kmh 29.73 in1006.8 mb 0.18 in4.6 mm 0.00 in0.0 mm 0.40 in10.2 mm
02:13 PM 34.8°F1.6°C 31.9°F-0.1°C 93% 4.0 mph NE6.4 kmh NE 18.0 mph29.0 kmh 29.72 in1006.4 mb 0.18 in4.6 mm 0.00 in0.0 mm 0.41 in10.4 mm
02:15 PM 34.7°F1.5°C 31.8°F-0.1°C 93% 11.0 mph ENE17.7 kmh ENE 18.0 mph29.0 kmh 29.72 in1006.4 mb 0.16 in4.1 mm 0.00 in0.0 mm 0.41 in10.4 mm
02:17 PM 34.6°F1.4°C 31.7°F-0.2°C 93% 3.0 mph SSE4.8 kmh SSE 18.0 mph29.0 kmh 29.72 in1006.4 mb 0.16 in4.1 mm 0.00 in0.0 mm 0.42 in10.7 mm
02:19 PM 34.5°F1.4°C 31.6°F-0.2°C 93% 12.0 mph NNE19.3 kmh NNE 18.0 mph29.0 kmh 29.73 in1006.8 mb 0.13 in3.3 mm 0.00 in0.0 mm 0.42 in10.7 mm
02:21 PM 34.4°F1.3°C 31.5°F-0.3°C 93% 6.0 mph NE9.7 kmh NE 22.0 mph35.4 kmh 29.73 in1006.8 mb 0.09 in2.3 mm 0.00 in0.0 mm 0.42 in10.7 mm
02:23 PM 34.4°F1.3°C 31.5°F-0.3°C 93% 6.0 mph NE9.7 kmh NE 22.0 mph35.4 kmh 29.73 in1006.8 mb 0.07 in1.8 mm 0.00 in0.0 mm 0.42 in10.7 mm
02:25 PM 34.3°F1.3°C 31.4°F-0.3°C 93% 10.0 mph NE16.1 kmh NE 22.0 mph35.4 kmh 29.73 in1006.8 mb 0.06 in1.5 mm 0.00 in0.0 mm 0.42 in10.7 mm
02:27 PM 34.2°F1.2°C 31.3°F-0.4°C 93% 7.0 mph NNE11.3 kmh NNE 22.0 mph35.4 kmh 29.73 in1006.8 mb 0.05 in1.3 mm 0.00 in0.0 mm 0.43 in10.9 mm
02:29 PM 34.2°F1.2°C 31.3°F-0.4°C 93% 5.0 mph NNE8.0 kmh NNE 22.0 mph35.4 kmh 29.73 in1006.8 mb 0.05 in1.3 mm 0.00 in0.0 mm 0.43 in10.9 mm
02:31 PM 34.2°F1.2°C 31.3°F-0.4°C 93% 9.0 mph NE14.5 kmh NE 22.0 mph35.4 kmh 29.74 in1007.1 mb 0.05 in1.3 mm 0.00 in0.0 mm 0.43 in10.9 mm
02:33 PM 34.2°F1.2°C 31.3°F-0.4°C 93% 5.0 mph NNE8.0 kmh NNE 22.0 mph35.4 kmh 29.74 in1007.1 mb 0.05 in1.3 mm 0.00 in0.0 mm 0.43 in10.9 mm
02:35 PM 34.2°F1.2°C 31.3°F-0.4°C 93% 11.0 mph NE17.7 kmh NE 22.0 mph35.4 kmh 29.74 in1007.1 mb 0.05 in1.3 mm 0.00 in0.0 mm 0.43 in10.9 mm
02:37 PM 34.2°F1.2°C 31.0°F-0.6°C 92% 6.0 mph NE9.7 kmh NE 22.0 mph35.4 kmh 29.74 in1007.1 mb 0.05 in1.3 mm 0.00 in0.0 mm 0.43 in10.9 mm
02:39 PM 34.2°F1.2°C 31.0°F-0.6°C 92% 10.0 mph NNE16.1 kmh NNE 22.0 mph35.4 kmh 29.75 in1007.5 mb 0.05 in1.3 mm 0.00 in0.0 mm 0.43 in10.9 mm
02:41 PM 34.1°F1.2°C 30.9°F-0.6°C 92% 11.0 mph N17.7 kmh N 19.0 mph30.6 kmh 29.75 in1007.5 mb 0.04 in1.0 mm 0.00 in0.0 mm 0.43 in10.9 mm
02:43 PM 34.1°F1.2°C 30.9°F-0.6°C 92% 6.0 mph NE9.7 kmh NE 19.0 mph30.6 kmh 29.75 in1007.5 mb 0.04 in1.0 mm 0.00 in0.0 mm 0.43 in10.9 mm
02:45 PM 34.0°F1.1°C 30.8°F-0.7°C 92% 9.0 mph NNE14.5 kmh NNE 19.0 mph30.6 kmh 29.75 in1007.5 mb 0.00 in0.0 mm 0.00 in0.0 mm 0.43 in10.9 mm
02:47 PM 34.0°F1.1°C 30.8°F-0.7°C 92% 10.0 mph ENE16.1 kmh ENE 19.0 mph30.6 kmh 29.74 in1007.1 mb 0.00 in0.0 mm 0.00 in0.0 mm 0.43 in10.9 mm
02:49 PM 33.9°F1.1°C 30.7°F-0.7°C 92% 10.0 mph NE16.1 kmh NE 19.0 mph30.6 kmh 29.74 in1007.1 mb 0.00 in0.0 mm 0.00 in0.0 mm 0.43 in10.9 mm
02:51 PM 33.8°F1.0°C 30.6°F-0.8°C 92% 4.0 mph NE6.4 kmh NE 16.0 mph25.7 kmh 29.74 in1007.1 mb 0.00 in0.0 mm 0.00 in0.0 mm 0.43 in10.9 mm
02:53 PM 33.8°F1.0°C 30.9°F-0.6°C 93% 3.0 mph NNE4.8 kmh NNE 16.0 mph25.7 kmh 29.75 in1007.5 mb 0.00 in0.0 mm 0.00 in0.0 mm 0.43 in10.9 mm
02:55 PM 33.8°F1.0°C 30.9°F-0.6°C 93% 4.0 mph NE6.4 kmh NE 16.0 mph25.7 kmh 29.75 in1007.5 mb 0.00 in0.0 mm 0.00 in0.0 mm 0.43 in10.9 mm
02:57 PM 33.7°F0.9°C 30.8°F-0.7°C 93% 3.0 mph NE4.8 kmh NE 16.0 mph25.7 kmh 29.75 in1007.5 mb 0.00 in0.0 mm 0.00 in0.0 mm 0.44 in11.2 mm
02:59 PM 33.7°F0.9°C 30.8°F-0.7°C 93% 4.0 mph N6.4 kmh N 16.0 mph25.7 kmh 29.75 in1007.5 mb 0.00 in0.0 mm 0.00 in0.0 mm 0.44 in11.2 mm
03:01 PM 33.7°F0.9°C 30.8°F-0.7°C 93% 5.0 mph NE8.0 kmh NE 13.0 mph20.9 kmh 29.75 in1007.5 mb 0.00 in0.0 mm 0.00 in0.0 mm 0.44 in11.2 mm
03:03 PM 33.7°F0.9°C 30.8°F-0.7°C 93% 3.0 mph NE4.8 kmh NE 13.0 mph20.9 kmh 29.76 in1007.8 mb 0.00 in0.0 mm 0.00 in0.0 mm 0.44 in11.2 mm
03:05 PM 33.6°F0.9°C 30.7°F-0.7°C 93% 6.0 mph N9.7 kmh N 13.0 mph20.9 kmh 29.76 in1007.8 mb 0.00 in0.0 mm 0.00 in0.0 mm 0.44 in11.2 mm
03:07 PM 33.6°F0.9°C 30.7°F-0.7°C 93% 5.0 mph NE8.0 kmh NE 13.0 mph20.9 kmh 29.76 in1007.8 mb 0.06 in1.5 mm 1.80 in45.7 mm 0.45 in11.4 mm
03:09 PM 33.6°F0.9°C 30.7°F-0.7°C 93% 4.0 mph NNE6.4 kmh NNE 13.0 mph20.9 kmh 29.76 in1007.8 mb 0.06 in1.5 mm 0.00 in0.0 mm 0.45 in11.4 mm
03:11 PM 33.5°F0.8°C 30.6°F-0.8°C 93% 12.0 mph NE19.3 kmh NE 14.0 mph22.5 kmh 29.76 in1007.8 mb 0.06 in1.5 mm 0.00 in0.0 mm 0.45 in11.4 mm
03:13 PM 33.5°F0.8°C 30.6°F-0.8°C 93% 2.0 mph NNW3.2 kmh NNW 14.0 mph22.5 kmh 29.76 in1007.8 mb 0.06 in1.5 mm 0.00 in0.0 mm 0.45 in11.4 mm
03:15 PM 33.4°F0.8°C 30.5°F-0.8°C 93% 4.0 mph NE6.4 kmh NE 14.0 mph22.5 kmh 29.75 in1007.5 mb 0.06 in1.5 mm 0.00 in0.0 mm 0.45 in11.4 mm
03:17 PM 33.3°F0.7°C 30.4°F-0.9°C 93% 10.0 mph NE16.1 kmh NE 14.0 mph22.5 kmh 29.75 in1007.5 mb 0.06 in1.5 mm 0.00 in0.0 mm 0.45 in11.4 mm
03:19 PM 33.3°F0.7°C 30.4°F-0.9°C 93% 7.0 mph ENE11.3 kmh ENE 14.0 mph22.5 kmh 29.75 in1007.5 mb 0.05 in1.3 mm 0.00 in0.0 mm 0.46 in11.7 mm
03:21 PM 33.2°F0.7°C 30.3°F-0.9°C 93% 2.0 mph NE3.2 kmh NE 14.0 mph22.5 kmh 29.75 in1007.5 mb 0.05 in1.3 mm 0.00 in0.0 mm 0.46 in11.7 mm
03:23 PM 33.2°F0.7°C 30.3°F-0.9°C 93% 5.0 mph NNE8.0 kmh NNE 14.0 mph22.5 kmh 29.76 in1007.8 mb 0.05 in1.3 mm 0.00 in0.0 mm 0.46 in11.7 mm
03:25 PM 33.1°F0.6°C 30.2°F-1.0°C 93% 3.0 mph NE4.8 kmh NE 14.0 mph22.5 kmh 29.76 in1007.8 mb 0.05 in1.3 mm 0.00 in0.0 mm 0.46 in11.7 mm
03:27 PM 33.1°F0.6°C 30.5°F-0.8°C 94% 8.0 mph NE12.9 kmh NE 14.0 mph22.5 kmh 29.76 in1007.8 mb 0.05 in1.3 mm 0.00 in0.0 mm 0.46 in11.7 mm
03:29 PM 33.0°F0.6°C 30.4°F-0.9°C 94% 7.0 mph NE11.3 kmh NE 14.0 mph22.5 kmh 29.76 in1007.8 mb 0.05 in1.3 mm 0.00 in0.0 mm 0.46 in11.7 mm
03:31 PM 33.0°F0.6°C 30.1°F-1.1°C 93% 7.0 mph NE11.3 kmh NE 14.0 mph22.5 kmh 29.76 in1007.8 mb 0.05 in1.3 mm 0.00 in0.0 mm 0.46 in11.7 mm
03:33 PM 32.9°F0.5°C 30.0°F-1.1°C 93% 13.0 mph ENE20.9 kmh ENE 14.0 mph22.5 kmh 29.76 in1007.8 mb 0.04 in1.0 mm 0.00 in0.0 mm 0.46 in11.7 mm
03:35 PM 32.8°F0.4°C 29.9°F-1.2°C 93% 3.0 mph NNE4.8 kmh NNE 20.0 mph32.2 kmh 29.76 in1007.8 mb 0.04 in1.0 mm 0.00 in0.0 mm 0.46 in11.7 mm
03:37 PM 32.8°F0.4°C 29.9°F-1.2°C 93% 3.0 mph NNW4.8 kmh NNW 20.0 mph32.2 kmh 29.76 in1007.8 mb 0.00 in0.0 mm 0.00 in0.0 mm 0.46 in11.7 mm
03:39 PM 32.7°F0.4°C 29.8°F-1.2°C 93% 5.0 mph NE8.0 kmh NE 20.0 mph32.2 kmh 29.76 in1007.8 mb 0.00 in0.0 mm 0.00 in0.0 mm 0.46 in11.7 mm
03:41 PM 32.7°F0.4°C 29.8°F-1.2°C 93% 5.0 mph NE8.0 kmh NE 20.0 mph32.2 kmh 29.76 in1007.8 mb 0.00 in0.0 mm 0.00 in0.0 mm 0.46 in11.7 mm
03:43 PM 32.6°F0.3°C 29.7°F-1.3°C 93% 2.0 mph NE3.2 kmh NE 20.0 mph32.2 kmh 29.76 in1007.8 mb 0.00 in0.0 mm 0.00 in0.0 mm 0.46 in11.7 mm
03:47 PM 32.5°F0.3°C 29.9°F-1.2°C 94% 4.0 mph NE6.4 kmh NE 20.0 mph32.2 kmh 29.76 in1007.8 mb 0.00 in0.0 mm 0.00 in0.0 mm 0.46 in11.7 mm
03:49 PM 32.5°F0.3°C 29.9°F-1.2°C 94% 5.0 mph 8.0 kmh 20.0 mph32.2 kmh 29.76 in1007.8 mb 0.00 in0.0 mm 0.00 in0.0 mm 0.47 in11.9 mm
03:51 PM 32.4°F0.2°C 29.8°F-1.2°C 94% 17.0 mph ENE27.4 kmh ENE 20.0 mph32.2 kmh 29.77 in1008.1 mb 0.00 in0.0 mm 0.00 in0.0 mm 0.47 in11.9 mm
03:53 PM 32.4°F0.2°C 29.5°F-1.4°C 93% 7.0 mph NNE11.3 kmh NNE 20.0 mph32.2 kmh 29.77 in1008.1 mb 0.00 in0.0 mm 0.00 in0.0 mm 0.47 in11.9 mm
03:55 PM 32.3°F0.2°C 29.4°F-1.4°C 93% 13.0 mph NE20.9 kmh NE 19.0 mph30.6 kmh 29.77 in1008.1 mb 0.09 in2.3 mm 2.70 in68.6 mm 0.47 in11.9 mm
03:57 PM 32.3°F0.2°C 29.4°F-1.4°C 93% 6.0 mph ENE9.7 kmh ENE 19.0 mph30.6 kmh 29.77 in1008.1 mb 0.09 in2.3 mm 0.00 in0.0 mm 0.48 in12.2 mm
03:59 PM 32.2°F0.1°C 29.3°F-1.5°C 93% 5.0 mph NE8.0 kmh NE 19.0 mph30.6 kmh 29.77 in1008.1 mb 0.09 in2.3 mm 0.00 in0.0 mm 0.48 in12.2 mm
04:01 PM 32.2°F0.1°C 29.3°F-1.5°C 93% 5.0 mph NE8.0 kmh NE 19.0 mph30.6 kmh 29.77 in1008.1 mb 0.09 in2.3 mm 0.00 in0.0 mm 0.48 in12.2 mm
04:03 PM 32.2°F0.1°C 29.1°F-1.6°C 92% 9.0 mph NE14.5 kmh NE 19.0 mph30.6 kmh 29.77 in1008.1 mb 0.08 in2.0 mm 0.00 in0.0 mm 0.48 in12.2 mm
04:05 PM 32.1°F0.1°C 29.0°F-1.7°C 92% 6.0 mph NE9.7 kmh NE 16.0 mph25.7 kmh 29.77 in1008.1 mb 0.08 in2.0 mm 0.00 in0.0 mm 0.49 in12.4 mm
04:07 PM 32.1°F0.1°C 29.2°F-1.6°C 93% 7.0 mph N11.3 kmh N 18.0 mph29.0 kmh 29.76 in1007.8 mb 0.08 in2.0 mm 0.00 in0.0 mm 0.49 in12.4 mm
04:11 PM 32.0°F0.0°C 29.1°F-1.6°C 93% 5.0 mph NNE8.0 kmh NNE 18.0 mph29.0 kmh 29.75 in1007.5 mb 0.07 in1.8 mm 0.00 in0.0 mm 0.49 in12.4 mm
04:13 PM 31.9°F-0.1°C 28.8°F-1.8°C 92% 14.0 mph NE22.5 kmh NE 18.0 mph29.0 kmh 29.76 in1007.8 mb 0.06 in1.5 mm 0.00 in0.0 mm 0.49 in12.4 mm
04:15 PM 31.8°F-0.1°C 28.7°F-1.8°C 92% 9.0 mph ENE14.5 kmh ENE 18.0 mph29.0 kmh 29.76 in1007.8 mb 0.05 in1.3 mm 0.00 in0.0 mm 0.49 in12.4 mm
04:17 PM 31.8°F-0.1°C 28.7°F-1.8°C 92% 9.0 mph NNE14.5 kmh NNE 18.0 mph29.0 kmh 29.75 in1007.5 mb 0.04 in1.0 mm 0.00 in0.0 mm 0.49 in12.4 mm
04:19 PM 31.7°F-0.2°C 28.6°F-1.9°C 92% 6.0 mph NNW9.7 kmh NNW 18.0 mph29.0 kmh 29.75 in1007.5 mb 0.04 in1.0 mm 0.00 in0.0 mm 0.50 in12.7 mm
04:21 PM 31.7°F-0.2°C 28.6°F-1.9°C 92% 9.0 mph ENE14.5 kmh ENE 18.0 mph29.0 kmh 29.75 in1007.5 mb 0.04 in1.0 mm 0.00 in0.0 mm 0.50 in12.7 mm
04:23 PM 31.7°F-0.2°C 28.6°F-1.9°C 92% 7.0 mph NNE11.3 kmh NNE 18.0 mph29.0 kmh 29.76 in1007.8 mb 0.04 in1.0 mm 0.00 in0.0 mm 0.50 in12.7 mm
04:25 PM 31.6°F-0.2°C 28.5°F-1.9°C 92% 5.0 mph 8.0 kmh 18.0 mph29.0 kmh 29.75 in1007.5 mb 0.04 in1.0 mm 0.00 in0.0 mm 0.50 in12.7 mm
04:27 PM 31.6°F-0.2°C 28.5°F-1.9°C 92% 10.0 mph N16.1 kmh N 17.0 mph27.4 kmh 29.75 in1007.5 mb 0.04 in1.0 mm 0.00 in0.0 mm 0.50 in12.7 mm
04:29 PM 31.6°F-0.2°C 28.5°F-1.9°C 92% 3.0 mph NE4.8 kmh NE 17.0 mph27.4 kmh 29.75 in1007.5 mb 0.04 in1.0 mm 0.00 in0.0 mm 0.50 in12.7 mm
04:31 PM 31.5°F-0.3°C 28.6°F-1.9°C 93% 7.0 mph N11.3 kmh N 17.0 mph27.4 kmh 29.76 in1007.8 mb 0.04 in1.0 mm 0.00 in0.0 mm 0.50 in12.7 mm
04:33 PM 31.5°F-0.3°C 28.6°F-1.9°C 93% 4.0 mph NW6.4 kmh NW 17.0 mph27.4 kmh 29.76 in1007.8 mb 0.04 in1.0 mm 0.00 in0.0 mm 0.50 in12.7 mm
04:35 PM 31.5°F-0.3°C 28.6°F-1.9°C 93% 5.0 mph NE8.0 kmh NE 17.0 mph27.4 kmh 29.76 in1007.8 mb 0.04 in1.0 mm 0.00 in0.0 mm 0.50 in12.7 mm
04:37 PM 31.5°F-0.3°C 28.6°F-1.9°C 93% 5.0 mph NE8.0 kmh NE 15.0 mph24.1 kmh 29.76 in1007.8 mb 0.00 in0.0 mm 0.00 in0.0 mm 0.50 in12.7 mm
04:39 PM 31.5°F-0.3°C 28.6°F-1.9°C 93% 5.0 mph ENE8.0 kmh ENE 15.0 mph24.1 kmh 29.76 in1007.8 mb 0.00 in0.0 mm 0.00 in0.0 mm 0.50 in12.7 mm
04:41 PM 31.4°F-0.3°C 28.5°F-1.9°C 93% 6.0 mph NE9.7 kmh NE 15.0 mph24.1 kmh 29.76 in1007.8 mb 0.00 in0.0 mm 0.00 in0.0 mm 0.50 in12.7 mm
04:43 PM 31.4°F-0.3°C 28.5°F-1.9°C 93% 3.0 mph NNE4.8 kmh NNE 15.0 mph24.1 kmh 29.76 in1007.8 mb 0.00 in0.0 mm 0.00 in0.0 mm 0.50 in12.7 mm
04:45 PM 31.3°F-0.4°C 28.4°F-2.0°C 93% 5.0 mph NE8.0 kmh NE 15.0 mph24.1 kmh 29.77 in1008.1 mb 0.00 in0.0 mm 0.00 in0.0 mm 0.50 in12.7 mm
04:47 PM 31.2°F-0.4°C 28.3°F-2.1°C 93% 3.0 mph NE4.8 kmh NE 13.0 mph20.9 kmh 29.77 in1008.1 mb 0.00 in0.0 mm 0.00 in0.0 mm 0.50 in12.7 mm
04:49 PM 31.2°F-0.4°C 28.3°F-2.1°C 93% 8.0 mph NNE12.9 kmh NNE 13.0 mph20.9 kmh 29.77 in1008.1 mb 0.00 in0.0 mm 0.00 in0.0 mm 0.50 in12.7 mm
04:51 PM 31.1°F-0.5°C 28.2°F-2.1°C 93% 5.0 mph NNE8.0 kmh NNE 17.0 mph27.4 kmh 29.77 in1008.1 mb 0.00 in0.0 mm 0.00 in0.0 mm 0.50 in12.7 mm
04:53 PM 31.0°F-0.6°C 28.1°F-2.2°C 93% 5.0 mph N8.0 kmh N 17.0 mph27.4 kmh 29.77 in1008.1 mb 0.00 in0.0 mm 0.00 in0.0 mm 0.50 in12.7 mm
04:55 PM 30.9°F-0.6°C 28.0°F-2.2°C 93% 5.0 mph E8.0 kmh E 17.0 mph27.4 kmh 29.78 in1008.5 mb 0.00 in0.0 mm 0.00 in0.0 mm 0.50 in12.7 mm
04:57 PM 30.8°F-0.7°C 27.7°F-2.4°C 92% 4.0 mph NNE6.4 kmh NNE 17.0 mph27.4 kmh 29.79 in1008.8 mb 0.00 in0.0 mm 0.00 in0.0 mm 0.50 in12.7 mm
04:59 PM 30.7°F-0.7°C 27.6°F-2.4°C 92% 3.0 mph NE4.8 kmh NE 17.0 mph27.4 kmh 29.79 in1008.8 mb 0.00 in0.0 mm 0.00 in0.0 mm 0.50 in12.7 mm
05:01 PM 30.7°F-0.7°C 27.6°F-2.4°C 92% 5.0 mph N8.0 kmh N 17.0 mph27.4 kmh 29.80 in1009.1 mb 0.00 in0.0 mm 0.00 in0.0 mm 0.50 in12.7 mm
05:03 PM 30.6°F-0.8°C 27.5°F-2.5°C 92% 7.0 mph NNE11.3 kmh NNE 17.0 mph27.4 kmh 29.81 in1009.5 mb 0.00 in0.0 mm 0.00 in0.0 mm 0.50 in12.7 mm
05:05 PM 30.6°F-0.8°C 27.5°F-2.5°C 92% 4.0 mph NNW6.4 kmh NNW 17.0 mph27.4 kmh 29.81 in1009.5 mb 0.00 in0.0 mm 0.00 in0.0 mm 0.50 in12.7 mm
05:07 PM 30.5°F-0.8°C 27.4°F-2.6°C 92% 4.0 mph NW6.4 kmh NW 17.0 mph27.4 kmh 29.82 in1009.8 mb 0.00 in0.0 mm 0.00 in0.0 mm 0.50 in12.7 mm
05:09 PM 30.4°F-0.9°C 27.3°F-2.6°C 92% 7.0 mph WNW11.3 kmh WNW 17.0 mph27.4 kmh 29.82 in1009.8 mb 0.00 in0.0 mm 0.00 in0.0 mm 0.50 in12.7 mm
05:11 PM 30.3°F-0.9°C 27.2°F-2.7°C 92% 10.0 mph 16.1 kmh 15.0 mph24.1 kmh 29.82 in1009.8 mb 0.00 in0.0 mm 0.00 in0.0 mm 0.50 in12.7 mm
05:13 PM 30.2°F-1.0°C 26.8°F-2.9°C 91% 5.0 mph NNE8.0 kmh NNE 15.0 mph24.1 kmh 29.82 in1009.8 mb 0.00 in0.0 mm 0.00 in0.0 mm 0.50 in12.7 mm
05:15 PM 30.0°F-1.1°C 26.6°F-3.0°C 91% 3.0 mph NE4.8 kmh NE 15.0 mph24.1 kmh 29.82 in1009.8 mb 0.00 in0.0 mm 0.00 in0.0 mm 0.50 in12.7 mm
05:17 PM 29.9°F-1.2°C 26.5°F-3.1°C 91% 12.0 mph NNE19.3 kmh NNE 20.0 mph32.2 kmh 29.82 in1009.8 mb 0.00 in0.0 mm 0.00 in0.0 mm 0.50 in12.7 mm
05:19 PM 29.8°F-1.2°C 26.1°F-3.3°C 90% 7.0 mph N11.3 kmh N 20.0 mph32.2 kmh 29.82 in1009.8 mb 0.00 in0.0 mm 0.00 in0.0 mm 0.50 in12.7 mm
05:21 PM 29.8°F-1.2°C 26.1°F-3.3°C 90% 4.0 mph NNE6.4 kmh NNE 20.0 mph32.2 kmh 29.82 in1009.8 mb 0.00 in0.0 mm 0.00 in0.0 mm 0.50 in12.7 mm
05:23 PM 29.8°F-1.2°C 26.4°F-3.1°C 91% 9.0 mph NNE14.5 kmh NNE 20.0 mph32.2 kmh 29.82 in1009.8 mb 0.00 in0.0 mm 0.00 in0.0 mm 0.50 in12.7 mm
05:25 PM 29.7°F-1.3°C 26.3°F-3.2°C 91% 5.0 mph NNE8.0 kmh NNE 20.0 mph32.2 kmh 29.82 in1009.8 mb 0.00 in0.0 mm 0.00 in0.0 mm 0.50 in12.7 mm
05:27 PM 29.7°F-1.3°C 26.3°F-3.2°C 91% 4.0 mph NNE6.4 kmh NNE 20.0 mph32.2 kmh 29.81 in1009.5 mb 0.00 in0.0 mm 0.00 in0.0 mm 0.50 in12.7 mm
05:29 PM 29.6°F-1.3°C 26.2°F-3.2°C 91% 9.0 mph NNE14.5 kmh NNE 20.0 mph32.2 kmh 29.82 in1009.8 mb 0.00 in0.0 mm 0.00 in0.0 mm 0.50 in12.7 mm
05:31 PM 29.6°F-1.3°C 26.2°F-3.2°C 91% 3.0 mph E4.8 kmh E 20.0 mph32.2 kmh 29.82 in1009.8 mb 0.00 in0.0 mm 0.00 in0.0 mm 0.50 in12.7 mm
05:33 PM 29.5°F-1.4°C 26.1°F-3.3°C 91% 5.0 mph NNE8.0 kmh NNE 20.0 mph32.2 kmh 29.82 in1009.8 mb 0.00 in0.0 mm 0.00 in0.0 mm 0.50 in12.7 mm
05:35 PM 29.4°F-1.4°C 26.3°F-3.2°C 92% 9.0 mph ENE14.5 kmh ENE 20.0 mph32.2 kmh 29.82 in1009.8 mb 0.00 in0.0 mm 0.00 in0.0 mm 0.50 in12.7 mm
05:37 PM 29.3°F-1.5°C 25.9°F-3.4°C 91% 11.0 mph NE17.7 kmh NE 17.0 mph27.4 kmh 29.82 in1009.8 mb 0.00 in0.0 mm 0.00 in0.0 mm 0.50 in12.7 mm
05:39 PM 29.1°F-1.6°C 25.7°F-3.5°C 91% 10.0 mph N16.1 kmh N 17.0 mph27.4 kmh 29.82 in1009.8 mb 0.00 in0.0 mm 0.00 in0.0 mm 0.50 in12.7 mm
05:41 PM 28.9°F-1.7°C 25.5°F-3.6°C 91% 8.0 mph NNE12.9 kmh NNE 17.0 mph27.4 kmh 29.83 in1010.2 mb 0.00 in0.0 mm 0.00 in0.0 mm 0.50 in12.7 mm
05:43 PM 28.6°F-1.9°C 25.2°F-3.8°C 91% 8.0 mph NNW12.9 kmh NNW 20.0 mph32.2 kmh 29.82 in1009.8 mb 0.00 in0.0 mm 0.00 in0.0 mm 0.50 in12.7 mm
05:45 PM 28.4°F-2.0°C 25.0°F-3.9°C 91% 5.0 mph N8.0 kmh N 20.0 mph32.2 kmh 29.82 in1009.8 mb 0.00 in0.0 mm 0.00 in0.0 mm 0.50 in12.7 mm
05:47 PM 28.3°F-2.1°C 24.9°F-3.9°C 91% 4.0 mph NE6.4 kmh NE 20.0 mph32.2 kmh 29.82 in1009.8 mb 0.00 in0.0 mm 0.00 in0.0 mm 0.50 in12.7 mm
05:49 PM 28.2°F-2.1°C 24.8°F-4.0°C 91% 3.0 mph NNE4.8 kmh NNE 20.0 mph32.2 kmh 29.81 in1009.5 mb 0.00 in0.0 mm 0.00 in0.0 mm 0.50 in12.7 mm
05:51 PM 28.1°F-2.2°C 25.0°F-3.9°C 92% 11.0 mph NE17.7 kmh NE 20.0 mph32.2 kmh 29.81 in1009.5 mb 0.00 in0.0 mm 0.00 in0.0 mm 0.50 in12.7 mm
05:53 PM 27.9°F-2.3°C 24.8°F-4.0°C 92% 5.0 mph NNE8.0 kmh NNE 20.0 mph32.2 kmh 29.82 in1009.8 mb 0.00 in0.0 mm 0.00 in0.0 mm 0.50 in12.7 mm
05:55 PM 27.9°F-2.3°C 24.5°F-4.2°C 91% 9.0 mph NNE14.5 kmh NNE 20.0 mph32.2 kmh 29.82 in1009.8 mb 0.00 in0.0 mm 0.00 in0.0 mm 0.50 in12.7 mm
05:57 PM 27.7°F-2.4°C 24.3°F-4.3°C 91% 7.0 mph NE11.3 kmh NE 20.0 mph32.2 kmh 29.81 in1009.5 mb 0.00 in0.0 mm 0.00 in0.0 mm 0.50 in12.7 mm
05:59 PM 27.6°F-2.4°C 24.2°F-4.3°C 91% 6.0 mph NE9.7 kmh NE 20.0 mph32.2 kmh 29.81 in1009.5 mb 0.00 in0.0 mm 0.00 in0.0 mm 0.50 in12.7 mm
06:01 PM 27.5°F-2.5°C 24.1°F-4.4°C 91% 10.0 mph NE16.1 kmh NE 20.0 mph32.2 kmh 29.81 in1009.5 mb 0.00 in0.0 mm 0.00 in0.0 mm 0.50 in12.7 mm
06:03 PM 27.4°F-2.6°C 24.1°F-4.4°C 91% 6.0 mph NNW9.7 kmh NNW 17.0 mph27.4 kmh 29.82 in1009.8 mb 0.00 in0.0 mm 0.00 in0.0 mm 0.50 in12.7 mm
06:05 PM 27.2°F-2.7°C 23.9°F-4.5°C 91% 8.0 mph NE12.9 kmh NE 21.0 mph33.8 kmh 29.82 in1009.8 mb 0.00 in0.0 mm 0.00 in0.0 mm 0.50 in12.7 mm
06:07 PM 27.1°F-2.7°C 23.8°F-4.6°C 91% 17.0 mph ENE27.4 kmh ENE 21.0 mph33.8 kmh 29.82 in1009.8 mb 0.00 in0.0 mm 0.00 in0.0 mm 0.50 in12.7 mm
06:09 PM 26.9°F-2.8°C 23.3°F-4.8°C 90% 6.0 mph NNE9.7 kmh NNE 21.0 mph33.8 kmh 29.83 in1010.2 mb 0.00 in0.0 mm 0.00 in0.0 mm 0.50 in12.7 mm
06:11 PM 26.8°F-2.9°C 23.2°F-4.9°C 90% 9.0 mph N14.5 kmh N 21.0 mph33.8 kmh 29.83 in1010.2 mb 0.00 in0.0 mm 0.00 in0.0 mm 0.50 in12.7 mm
06:13 PM 26.7°F-2.9°C 23.1°F-4.9°C 90% 10.0 mph NNE16.1 kmh NNE 21.0 mph33.8 kmh 29.83 in1010.2 mb 0.00 in0.0 mm 0.00 in0.0 mm 0.50 in12.7 mm
06:15 PM 26.6°F-3.0°C 23.0°F-5.0°C 90% 14.0 mph NW22.5 kmh NW 21.0 mph33.8 kmh 29.84 in1010.5 mb 0.00 in0.0 mm 0.00 in0.0 mm 0.50 in12.7 mm
06:17 PM 26.5°F-3.1°C 22.9°F-5.1°C 90% 6.0 mph NE9.7 kmh NE 21.0 mph33.8 kmh 29.84 in1010.5 mb 0.00 in0.0 mm 0.00 in0.0 mm 0.50 in12.7 mm
06:19 PM 26.4°F-3.1°C 22.8°F-5.1°C 90% 6.0 mph N9.7 kmh N 21.0 mph33.8 kmh 29.84 in1010.5 mb 0.00 in0.0 mm 0.00 in0.0 mm 0.50 in12.7 mm
06:21 PM 26.3°F-3.2°C 22.7°F-5.2°C 90% 8.0 mph NNE12.9 kmh NNE 21.0 mph33.8 kmh 29.84 in1010.5 mb 0.00 in0.0 mm 0.00 in0.0 mm 0.50 in12.7 mm
06:23 PM 26.2°F-3.2°C 22.6°F-5.2°C 90% 6.0 mph NE9.7 kmh NE 21.0 mph33.8 kmh 29.84 in1010.5 mb 0.00 in0.0 mm 0.00 in0.0 mm 0.50 in12.7 mm
06:25 PM 26.2°F-3.2°C 22.6°F-5.2°C 90% 13.0 mph NNE20.9 kmh NNE 17.0 mph27.4 kmh 29.84 in1010.5 mb 0.00 in0.0 mm 0.00 in0.0 mm 0.50 in12.7 mm
06:27 PM 26.1°F-3.3°C 22.5°F-5.3°C 90% 5.0 mph N8.0 kmh N 17.0 mph27.4 kmh 29.84 in1010.5 mb 0.00 in0.0 mm 0.00 in0.0 mm 0.50 in12.7 mm
06:29 PM 26.1°F-3.3°C 22.5°F-5.3°C 90% 6.0 mph NW9.7 kmh NW 17.0 mph27.4 kmh 29.84 in1010.5 mb 0.00 in0.0 mm 0.00 in0.0 mm 0.50 in12.7 mm
06:31 PM 26.0°F-3.3°C 22.4°F-5.3°C 90% 10.0 mph N16.1 kmh N 17.0 mph27.4 kmh 29.83 in1010.2 mb 0.00 in0.0 mm 0.00 in0.0 mm 0.50 in12.7 mm
06:33 PM 26.0°F-3.3°C 22.4°F-5.3°C 90% 9.0 mph NNE14.5 kmh NNE 24.0 mph38.6 kmh 29.83 in1010.2 mb 0.00 in0.0 mm 0.00 in0.0 mm 0.50 in12.7 mm
06:35 PM 25.9°F-3.4°C 22.3°F-5.4°C 90% 13.0 mph ENE20.9 kmh ENE 24.0 mph38.6 kmh 29.83 in1010.2 mb 0.00 in0.0 mm 0.00 in0.0 mm 0.50 in12.7 mm
06:37 PM 25.8°F-3.4°C 22.2°F-5.4°C 90% 9.0 mph NE14.5 kmh NE 24.0 mph38.6 kmh 29.83 in1010.2 mb 0.00 in0.0 mm 0.00 in0.0 mm 0.50 in12.7 mm
06:39 PM 25.8°F-3.4°C 22.2°F-5.4°C 90% 5.0 mph NE8.0 kmh NE 24.0 mph38.6 kmh 29.82 in1009.8 mb 0.00 in0.0 mm 0.00 in0.0 mm 0.50 in12.7 mm
06:41 PM 25.7°F-3.5°C 22.1°F-5.5°C 90% 11.0 mph NE17.7 kmh NE 24.0 mph38.6 kmh 29.82 in1009.8 mb 0.00 in0.0 mm 0.00 in0.0 mm 0.50 in12.7 mm
06:43 PM 25.7°F-3.5°C 22.1°F-5.5°C 90% 6.0 mph ENE9.7 kmh ENE 24.0 mph38.6 kmh 29.81 in1009.5 mb 0.00 in0.0 mm 0.00 in0.0 mm 0.50 in12.7 mm
06:45 PM 25.7°F-3.5°C 22.1°F-5.5°C 90% 11.0 mph ENE17.7 kmh ENE 24.0 mph38.6 kmh 29.80 in1009.1 mb 0.00 in0.0 mm 0.00 in0.0 mm 0.50 in12.7 mm
06:47 PM 25.6°F-3.6°C 22.0°F-5.6°C 90% 9.0 mph NNE14.5 kmh NNE 24.0 mph38.6 kmh 29.79 in1008.8 mb 0.00 in0.0 mm 0.00 in0.0 mm 0.50 in12.7 mm
06:49 PM 25.5°F-3.6°C 22.2°F-5.4°C 91% 10.0 mph N16.1 kmh N 24.0 mph38.6 kmh 29.80 in1009.1 mb 0.00 in0.0 mm 0.00 in0.0 mm 0.50 in12.7 mm
06:51 PM 25.4°F-3.7°C 21.8°F-5.7°C 90% 11.0 mph ENE17.7 kmh ENE 24.0 mph38.6 kmh 29.80 in1009.1 mb 0.00 in0.0 mm 0.00 in0.0 mm 0.50 in12.7 mm
06:53 PM 25.3°F-3.7°C 21.7°F-5.7°C 90% 10.0 mph NE16.1 kmh NE 23.0 mph37.0 kmh 29.80 in1009.1 mb 0.00 in0.0 mm 0.00 in0.0 mm 0.50 in12.7 mm
06:55 PM 25.2°F-3.8°C 21.6°F-5.8°C 90% 10.0 mph NE16.1 kmh NE 23.0 mph37.0 kmh 29.80 in1009.1 mb 0.00 in0.0 mm 0.00 in0.0 mm 0.50 in12.7 mm
06:57 PM 25.1°F-3.8°C 21.5°F-5.8°C 90% 14.0 mph NE22.5 kmh NE 23.0 mph37.0 kmh 29.80 in1009.1 mb 0.00 in0.0 mm 0.00 in0.0 mm 0.50 in12.7 mm
06:59 PM 25.1°F-3.8°C 21.5°F-5.8°C 90% 12.0 mph N19.3 kmh N 23.0 mph37.0 kmh 29.81 in1009.5 mb 0.00 in0.0 mm 0.00 in0.0 mm 0.50 in12.7 mm
07:01 PM 25.0°F-3.9°C 21.4°F-5.9°C 90% 7.0 mph NE11.3 kmh NE 23.0 mph37.0 kmh 29.81 in1009.5 mb 0.00 in0.0 mm 0.00 in0.0 mm 0.50 in12.7 mm
07:03 PM 25.0°F-3.9°C 21.4°F-5.9°C 90% 9.0 mph NNE14.5 kmh NNE 23.0 mph37.0 kmh 29.82 in1009.8 mb 0.00 in0.0 mm 0.00 in0.0 mm 0.50 in12.7 mm
07:05 PM 25.0°F-3.9°C 21.4°F-5.9°C 90% 12.0 mph NE19.3 kmh NE 23.0 mph37.0 kmh 29.83 in1010.2 mb 0.00 in0.0 mm 0.00 in0.0 mm 0.50 in12.7 mm
07:07 PM 25.0°F-3.9°C 21.4°F-5.9°C 90% 5.0 mph NNE8.0 kmh NNE 23.0 mph37.0 kmh 29.83 in1010.2 mb 0.00 in0.0 mm 0.00 in0.0 mm 0.50 in12.7 mm
07:09 PM 24.9°F-3.9°C 21.0°F-6.1°C 89% 7.0 mph N11.3 kmh N 23.0 mph37.0 kmh 29.84 in1010.5 mb 0.00 in0.0 mm 0.00 in0.0 mm 0.50 in12.7 mm
07:11 PM 24.9°F-3.9°C 21.0°F-6.1°C 89% 6.0 mph NE9.7 kmh NE 23.0 mph37.0 kmh 29.84 in1010.5 mb 0.00 in0.0 mm 0.00 in0.0 mm 0.50 in12.7 mm
07:13 PM 24.9°F-3.9°C 21.0°F-6.1°C 89% 9.0 mph NE14.5 kmh NE 23.0 mph37.0 kmh 29.84 in1010.5 mb 0.00 in0.0 mm 0.00 in0.0 mm 0.50 in12.7 mm
07:15 PM 24.9°F-3.9°C 21.0°F-6.1°C 89% 8.0 mph NE12.9 kmh NE 19.0 mph30.6 kmh 29.84 in1010.5 mb 0.00 in0.0 mm 0.00 in0.0 mm 0.50 in12.7 mm
07:17 PM 24.9°F-3.9°C 21.0°F-6.1°C 89% 7.0 mph E11.3 kmh E 19.0 mph30.6 kmh 29.84 in1010.5 mb 0.00 in0.0 mm 0.00 in0.0 mm 0.50 in12.7 mm
07:19 PM 24.9°F-3.9°C 21.0°F-6.1°C 89% 21.0 mph NE33.8 kmh NE 21.0 mph33.8 kmh 29.84 in1010.5 mb 0.00 in0.0 mm 0.00 in0.0 mm 0.50 in12.7 mm
07:21 PM 24.9°F-3.9°C 21.0°F-6.1°C 89% 16.0 mph NE25.7 kmh NE 21.0 mph33.8 kmh 29.84 in1010.5 mb 0.00 in0.0 mm 0.00 in0.0 mm 0.50 in12.7 mm
07:23 PM 24.9°F-3.9°C 21.0°F-6.1°C 89% 2.0 mph NNE3.2 kmh NNE 21.0 mph33.8 kmh 29.84 in1010.5 mb 0.00 in0.0 mm 0.00 in0.0 mm 0.50 in12.7 mm
07:25 PM 24.9°F-3.9°C 21.0°F-6.1°C 89% 9.0 mph NNE14.5 kmh NNE 21.0 mph33.8 kmh 29.84 in1010.5 mb 0.00 in0.0 mm 0.00 in0.0 mm 0.50 in12.7 mm
07:27 PM 24.9°F-3.9°C 21.0°F-6.1°C 89% 5.0 mph NE8.0 kmh NE 21.0 mph33.8 kmh 29.84 in1010.5 mb 0.00 in0.0 mm 0.00 in0.0 mm 0.50 in12.7 mm
07:29 PM 24.9°F-3.9°C 21.0°F-6.1°C 89% 9.0 mph NNW14.5 kmh NNW 21.0 mph33.8 kmh 29.84 in1010.5 mb 0.00 in0.0 mm 0.00 in0.0 mm 0.50 in12.7 mm
07:31 PM 24.9°F-3.9°C 21.0°F-6.1°C 89% 9.0 mph NNE14.5 kmh NNE 21.0 mph33.8 kmh 29.84 in1010.5 mb 0.00 in0.0 mm 0.00 in0.0 mm 0.50 in12.7 mm
07:33 PM 24.9°F-3.9°C 21.0°F-6.1°C 89% 9.0 mph NE14.5 kmh NE 21.0 mph33.8 kmh 29.84 in1010.5 mb 0.00 in0.0 mm 0.00 in0.0 mm 0.50 in12.7 mm
07:35 PM 24.9°F-3.9°C 21.0°F-6.1°C 89% 4.0 mph NNE6.4 kmh NNE 21.0 mph33.8 kmh 29.84 in1010.5 mb 0.00 in0.0 mm 0.00 in0.0 mm 0.50 in12.7 mm
07:37 PM 24.9°F-3.9°C 21.0°F-6.1°C 89% 4.0 mph NE6.4 kmh NE 21.0 mph33.8 kmh 29.84 in1010.5 mb 0.00 in0.0 mm 0.00 in0.0 mm 0.50 in12.7 mm
07:39 PM 24.9°F-3.9°C 21.0°F-6.1°C 89% 9.0 mph NE14.5 kmh NE 17.0 mph27.4 kmh 29.84 in1010.5 mb 0.00 in0.0 mm 0.00 in0.0 mm 0.50 in12.7 mm
07:41 PM 24.9°F-3.9°C 21.0°F-6.1°C 89% 8.0 mph N12.9 kmh N 17.0 mph27.4 kmh 29.84 in1010.5 mb 0.00 in0.0 mm 0.00 in0.0 mm 0.50 in12.7 mm
07:43 PM 24.9°F-3.9°C 21.0°F-6.1°C 89% 4.0 mph NNE6.4 kmh NNE 17.0 mph27.4 kmh 29.84 in1010.5 mb 0.00 in0.0 mm 0.00 in0.0 mm 0.50 in12.7 mm
07:45 PM 24.9°F-3.9°C 21.0°F-6.1°C 89% 3.0 mph 4.8 kmh 17.0 mph27.4 kmh 29.84 in1010.5 mb 0.00 in0.0 mm 0.00 in0.0 mm 0.50 in12.7 mm
07:47 PM 24.9°F-3.9°C 21.0°F-6.1°C 89% 6.0 mph NNW9.7 kmh NNW 17.0 mph27.4 kmh 29.83 in1010.2 mb 0.00 in0.0 mm 0.00 in0.0 mm 0.50 in12.7 mm
07:49 PM 24.9°F-3.9°C 21.0°F-6.1°C 89% 7.0 mph NNE11.3 kmh NNE 17.0 mph27.4 kmh 29.83 in1010.2 mb 0.00 in0.0 mm 0.00 in0.0 mm 0.50 in12.7 mm
07:51 PM 24.8°F-4.0°C 20.9°F-6.2°C 89% 5.0 mph NE8.0 kmh NE 18.0 mph29.0 kmh 29.82 in1009.8 mb 0.00 in0.0 mm 0.00 in0.0 mm 0.50 in12.7 mm
07:53 PM 24.8°F-4.0°C 20.9°F-6.2°C 89% 12.0 mph NE19.3 kmh NE 18.0 mph29.0 kmh 29.82 in1009.8 mb 0.00 in0.0 mm 0.00 in0.0 mm 0.50 in12.7 mm
07:55 PM 24.8°F-4.0°C 20.9°F-6.2°C 89% 6.0 mph NE9.7 kmh NE 18.0 mph29.0 kmh 29.82 in1009.8 mb 0.00 in0.0 mm 0.00 in0.0 mm 0.50 in12.7 mm
07:57 PM 24.7°F-4.1°C 20.8°F-6.2°C 89% 7.0 mph NE11.3 kmh NE 18.0 mph29.0 kmh 29.82 in1009.8 mb 0.00 in0.0 mm 0.00 in0.0 mm 0.50 in12.7 mm
07:59 PM 24.7°F-4.1°C 20.8°F-6.2°C 89% 8.0 mph E12.9 kmh E 18.0 mph29.0 kmh 29.82 in1009.8 mb 0.00 in0.0 mm 0.00 in0.0 mm 0.50 in12.7 mm
08:01 PM 24.7°F-4.1°C 20.8°F-6.2°C 89% 10.0 mph N16.1 kmh N 18.0 mph29.0 kmh 29.82 in1009.8 mb 0.00 in0.0 mm 0.00 in0.0 mm 0.50 in12.7 mm
08:03 PM 24.7°F-4.1°C 20.8°F-6.2°C 89% 7.0 mph NE11.3 kmh NE 22.0 mph35.4 kmh 29.82 in1009.8 mb 0.00 in0.0 mm 0.00 in0.0 mm 0.50 in12.7 mm
08:05 PM 24.7°F-4.1°C 20.8°F-6.2°C 89% 7.0 mph N11.3 kmh N 22.0 mph35.4 kmh 29.83 in1010.2 mb 0.00 in0.0 mm 0.00 in0.0 mm 0.50 in12.7 mm
08:07 PM 24.7°F-4.1°C 20.8°F-6.2°C 89% 8.0 mph NNE12.9 kmh NNE 22.0 mph35.4 kmh 29.83 in1010.2 mb 0.00 in0.0 mm 0.00 in0.0 mm 0.50 in12.7 mm
08:09 PM 24.7°F-4.1°C 20.8°F-6.2°C 89% 5.0 mph NE8.0 kmh NE 22.0 mph35.4 kmh 29.83 in1010.2 mb 0.00 in0.0 mm 0.00 in0.0 mm 0.50 in12.7 mm
08:11 PM 24.7°F-4.1°C 20.8°F-6.2°C 89% 6.0 mph NNE9.7 kmh NNE 22.0 mph35.4 kmh 29.84 in1010.5 mb 0.00 in0.0 mm 0.00 in0.0 mm 0.50 in12.7 mm
08:13 PM 24.7°F-4.1°C 20.8°F-6.2°C 89% 4.0 mph NE6.4 kmh NE 22.0 mph35.4 kmh 29.84 in1010.5 mb 0.00 in0.0 mm 0.00 in0.0 mm 0.50 in12.7 mm
08:15 PM 24.6°F-4.1°C 20.7°F-6.3°C 89% 10.0 mph NE16.1 kmh NE 22.0 mph35.4 kmh 29.84 in1010.5 mb 0.00 in0.0 mm 0.00 in0.0 mm 0.50 in12.7 mm
08:17 PM 24.6°F-4.1°C 20.7°F-6.3°C 89% 5.0 mph N8.0 kmh N 22.0 mph35.4 kmh 29.84 in1010.5 mb 0.00 in0.0 mm 0.00 in0.0 mm 0.50 in12.7 mm
08:19 PM 24.6°F-4.1°C 21.0°F-6.1°C 90% 10.0 mph NE16.1 kmh NE 22.0 mph35.4 kmh 29.84 in1010.5 mb 0.00 in0.0 mm 0.00 in0.0 mm 0.50 in12.7 mm
08:21 PM 24.5°F-4.2°C 20.9°F-6.2°C 90% 6.0 mph NE9.7 kmh NE 22.0 mph35.4 kmh 29.84 in1010.5 mb 0.00 in0.0 mm 0.00 in0.0 mm 0.50 in12.7 mm
08:23 PM 24.5°F-4.2°C 20.9°F-6.2°C 90% 5.0 mph NNE8.0 kmh NNE 17.0 mph27.4 kmh 29.84 in1010.5 mb 0.00 in0.0 mm 0.00 in0.0 mm 0.50 in12.7 mm
08:25 PM 24.4°F-4.2°C 20.8°F-6.2°C 90% 7.0 mph NE11.3 kmh NE 17.0 mph27.4 kmh 29.84 in1010.5 mb 0.00 in0.0 mm 0.00 in0.0 mm 0.50 in12.7 mm
08:27 PM 24.4°F-4.2°C 21.1°F-6.1°C 91% 4.0 mph NNE6.4 kmh NNE 17.0 mph27.4 kmh 29.84 in1010.5 mb 0.00 in0.0 mm 0.00 in0.0 mm 0.50 in12.7 mm
08:29 PM 24.3°F-4.3°C 21.0°F-6.1°C 91% 13.0 mph NNE20.9 kmh NNE 17.0 mph27.4 kmh 29.84 in1010.5 mb 0.00 in0.0 mm 0.00 in0.0 mm 0.50 in12.7 mm
08:31 PM 24.3°F-4.3°C 21.0°F-6.1°C 91% 9.0 mph NNW14.5 kmh NNW 17.0 mph27.4 kmh 29.84 in1010.5 mb 0.00 in0.0 mm 0.00 in0.0 mm 0.50 in12.7 mm
08:33 PM 24.2°F-4.3°C 20.9°F-6.2°C 91% 7.0 mph NNE11.3 kmh NNE 16.0 mph25.7 kmh 29.84 in1010.5 mb 0.00 in0.0 mm 0.00 in0.0 mm 0.50 in12.7 mm
08:35 PM 24.2°F-4.3°C 20.9°F-6.2°C 91% 9.0 mph NE14.5 kmh NE 16.0 mph25.7 kmh 29.84 in1010.5 mb 0.00 in0.0 mm 0.00 in0.0 mm 0.50 in12.7 mm
08:37 PM 24.1°F-4.4°C 20.8°F-6.2°C 91% 10.0 mph NE16.1 kmh NE 24.0 mph38.6 kmh 29.84 in1010.5 mb 0.00 in0.0 mm 0.00 in0.0 mm 0.50 in12.7 mm
08:39 PM 24.1°F-4.4°C 20.8°F-6.2°C 91% 10.0 mph NNE16.1 kmh NNE 24.0 mph38.6 kmh 29.84 in1010.5 mb 0.00 in0.0 mm 0.00 in0.0 mm 0.50 in12.7 mm
08:41 PM 24.0°F-4.4°C 20.7°F-6.3°C 91% 5.0 mph NE8.0 kmh NE 24.0 mph38.6 kmh 29.84 in1010.5 mb 0.00 in0.0 mm 0.00 in0.0 mm 0.50 in12.7 mm
08:43 PM 24.0°F-4.4°C 20.7°F-6.3°C 91% 5.0 mph NE8.0 kmh NE 24.0 mph38.6 kmh 29.84 in1010.5 mb 0.00 in0.0 mm 0.00 in0.0 mm 0.50 in12.7 mm
08:45 PM 24.0°F-4.4°C 20.7°F-6.3°C 91% 6.0 mph NE9.7 kmh NE 24.0 mph38.6 kmh 29.84 in1010.5 mb 0.00 in0.0 mm 0.00 in0.0 mm 0.50 in12.7 mm
08:47 PM 24.0°F-4.4°C 21.0°F-6.1°C 92% 6.0 mph 9.7 kmh 24.0 mph38.6 kmh 29.85 in1010.8 mb 0.00 in0.0 mm 0.00 in0.0 mm 0.50 in12.7 mm
08:49 PM 24.0°F-4.4°C 21.0°F-6.1°C 92% 6.0 mph NE9.7 kmh NE 24.0 mph38.6 kmh 29.85 in1010.8 mb 0.00 in0.0 mm 0.00 in0.0 mm 0.50 in12.7 mm
08:51 PM 24.0°F-4.4°C 21.0°F-6.1°C 92% 8.0 mph NNE12.9 kmh NNE 24.0 mph38.6 kmh 29.85 in1010.8 mb 0.00 in0.0 mm 0.00 in0.0 mm 0.50 in12.7 mm
08:53 PM 24.0°F-4.4°C 21.0°F-6.1°C 92% 10.0 mph NNE16.1 kmh NNE 24.0 mph38.6 kmh 29.85 in1010.8 mb 0.00 in0.0 mm 0.00 in0.0 mm 0.50 in12.7 mm
08:55 PM 24.0°F-4.4°C 21.0°F-6.1°C 92% 5.0 mph NNE8.0 kmh NNE 24.0 mph38.6 kmh 29.85 in1010.8 mb 0.00 in0.0 mm 0.00 in0.0 mm 0.50 in12.7 mm
08:57 PM 23.9°F-4.5°C 20.9°F-6.2°C 92% 5.0 mph NE8.0 kmh NE 16.0 mph25.7 kmh 29.85 in1010.8 mb 0.00 in0.0 mm 0.00 in0.0 mm 0.50 in12.7 mm
08:59 PM 23.9°F-4.5°C 20.9°F-6.2°C 92% 15.0 mph N24.1 kmh N 16.0 mph25.7 kmh 29.85 in1010.8 mb 0.00 in0.0 mm 0.00 in0.0 mm 0.50 in12.7 mm
09:01 PM 23.8°F-4.6°C 20.8°F-6.2°C 92% 6.0 mph NE9.7 kmh NE 16.0 mph25.7 kmh 29.85 in1010.8 mb 0.00 in0.0 mm 0.00 in0.0 mm 0.50 in12.7 mm
09:03 PM 23.8°F-4.6°C 20.8°F-6.2°C 92% 7.0 mph ENE11.3 kmh ENE 16.0 mph25.7 kmh 29.85 in1010.8 mb 0.00 in0.0 mm 0.00 in0.0 mm 0.50 in12.7 mm
09:05 PM 23.8°F-4.6°C 20.8°F-6.2°C 92% 6.0 mph NE9.7 kmh NE 16.0 mph25.7 kmh 29.85 in1010.8 mb 0.00 in0.0 mm 0.00 in0.0 mm 0.50 in12.7 mm
09:07 PM 23.7°F-4.6°C 20.7°F-6.3°C 92% 4.0 mph NNE6.4 kmh NNE 16.0 mph25.7 kmh 29.85 in1010.8 mb 0.00 in0.0 mm 0.00 in0.0 mm 0.50 in12.7 mm
09:09 PM 23.7°F-4.6°C 20.7°F-6.3°C 92% 12.0 mph NE19.3 kmh NE 21.0 mph33.8 kmh 29.86 in1011.2 mb 0.00 in0.0 mm 0.00 in0.0 mm 0.50 in12.7 mm
09:11 PM 23.7°F-4.6°C 20.7°F-6.3°C 92% 5.0 mph N8.0 kmh N 21.0 mph33.8 kmh 29.86 in1011.2 mb 0.00 in0.0 mm 0.00 in0.0 mm 0.50 in12.7 mm
09:13 PM 23.6°F-4.7°C 20.6°F-6.3°C 92% 8.0 mph NW12.9 kmh NW 21.0 mph33.8 kmh 29.86 in1011.2 mb 0.00 in0.0 mm 0.00 in0.0 mm 0.50 in12.7 mm
09:15 PM 23.6°F-4.7°C 20.6°F-6.3°C 92% 7.0 mph NNE11.3 kmh NNE 21.0 mph33.8 kmh 29.86 in1011.2 mb 0.00 in0.0 mm 0.00 in0.0 mm 0.50 in12.7 mm
09:17 PM 23.6°F-4.7°C 20.6°F-6.3°C 92% 7.0 mph NNE11.3 kmh NNE 21.0 mph33.8 kmh 29.86 in1011.2 mb 0.00 in0.0 mm 0.00 in0.0 mm 0.50 in12.7 mm
09:19 PM 23.5°F-4.7°C 20.5°F-6.4°C 92% 9.0 mph NNW14.5 kmh NNW 21.0 mph33.8 kmh 29.86 in1011.2 mb 0.00 in0.0 mm 0.00 in0.0 mm 0.50 in12.7 mm
09:21 PM 23.5°F-4.7°C 20.5°F-6.4°C 92% 10.0 mph NE16.1 kmh NE 21.0 mph33.8 kmh 29.86 in1011.2 mb 0.00 in0.0 mm 0.00 in0.0 mm 0.50 in12.7 mm
09:23 PM 23.5°F-4.7°C 20.7°F-6.3°C 93% 9.0 mph NNE14.5 kmh NNE 21.0 mph33.8 kmh 29.87 in1011.5 mb 0.00 in0.0 mm 0.00 in0.0 mm 0.50 in12.7 mm
09:25 PM 23.4°F-4.8°C 20.6°F-6.3°C 93% 4.0 mph N6.4 kmh N 21.0 mph33.8 kmh 29.88 in1011.9 mb 0.00 in0.0 mm 0.00 in0.0 mm 0.50 in12.7 mm
09:27 PM 23.4°F-4.8°C 20.6°F-6.3°C 93% 9.0 mph N14.5 kmh N 21.0 mph33.8 kmh 29.87 in1011.5 mb 0.00 in0.0 mm 0.00 in0.0 mm 0.50 in12.7 mm
09:29 PM 23.4°F-4.8°C 20.6°F-6.3°C 93% 4.0 mph N6.4 kmh N 15.0 mph24.1 kmh 29.88 in1011.9 mb 0.00 in0.0 mm 0.00 in0.0 mm 0.50 in12.7 mm
09:31 PM 23.4°F-4.8°C 20.6°F-6.3°C 93% 3.0 mph SSE4.8 kmh SSE 15.0 mph24.1 kmh 29.88 in1011.9 mb 0.00 in0.0 mm 0.00 in0.0 mm 0.50 in12.7 mm
09:33 PM 23.3°F-4.8°C 20.5°F-6.4°C 93% 8.0 mph NNE12.9 kmh NNE 15.0 mph24.1 kmh 29.88 in1011.9 mb 0.00 in0.0 mm 0.00 in0.0 mm 0.50 in12.7 mm
09:35 PM 23.3°F-4.8°C 20.5°F-6.4°C 93% 5.0 mph E8.0 kmh E 15.0 mph24.1 kmh 29.88 in1011.9 mb 0.00 in0.0 mm 0.00 in0.0 mm 0.50 in12.7 mm
09:37 PM 23.3°F-4.8°C 20.5°F-6.4°C 93% 6.0 mph NE9.7 kmh NE 15.0 mph24.1 kmh 29.88 in1011.9 mb 0.00 in0.0 mm 0.00 in0.0 mm 0.50 in12.7 mm
09:39 PM 23.3°F-4.8°C 20.5°F-6.4°C 93% 4.0 mph NW6.4 kmh NW 14.0 mph22.5 kmh 29.88 in1011.9 mb 0.00 in0.0 mm 0.00 in0.0 mm 0.50 in12.7 mm
09:41 PM 23.2°F-4.9°C 20.4°F-6.4°C 93% 4.0 mph NW6.4 kmh NW 14.0 mph22.5 kmh 29.88 in1011.9 mb 0.00 in0.0 mm 0.00 in0.0 mm 0.50 in12.7 mm
09:43 PM 23.2°F-4.9°C 20.4°F-6.4°C 93% 2.0 mph N3.2 kmh N 14.0 mph22.5 kmh 29.88 in1011.9 mb 0.00 in0.0 mm 0.00 in0.0 mm 0.50 in12.7 mm
09:45 PM 23.1°F-4.9°C 20.4°F-6.4°C 93% 4.0 mph NE6.4 kmh NE 14.0 mph22.5 kmh 29.88 in1011.9 mb 0.00 in0.0 mm 0.00 in0.0 mm 0.50 in12.7 mm
09:47 PM 23.1°F-4.9°C 20.4°F-6.4°C 93% 9.0 mph NNE14.5 kmh NNE 14.0 mph22.5 kmh 29.88 in1011.9 mb 0.00 in0.0 mm 0.00 in0.0 mm 0.50 in12.7 mm
09:49 PM 23.1°F-4.9°C 20.4°F-6.4°C 93% 6.0 mph ENE9.7 kmh ENE 12.0 mph19.3 kmh 29.87 in1011.5 mb 0.00 in0.0 mm 0.00 in0.0 mm 0.50 in12.7 mm
09:51 PM 23.1°F-4.9°C 20.4°F-6.4°C 93% 5.0 mph NNW8.0 kmh NNW 15.0 mph24.1 kmh 29.88 in1011.9 mb 0.00 in0.0 mm 0.00 in0.0 mm 0.50 in12.7 mm
09:53 PM 23.1°F-4.9°C 20.4°F-6.4°C 93% 4.0 mph NNE6.4 kmh NNE 15.0 mph24.1 kmh 29.87 in1011.5 mb 0.00 in0.0 mm 0.00 in0.0 mm 0.50 in12.7 mm
09:55 PM 23.0°F-5.0°C 20.3°F-6.5°C 93% 4.0 mph NNE6.4 kmh NNE 15.0 mph24.1 kmh 29.87 in1011.5 mb 0.00 in0.0 mm 0.00 in0.0 mm 0.50 in12.7 mm
09:57 PM 23.0°F-5.0°C 20.3°F-6.5°C 93% 9.0 mph NE14.5 kmh NE 15.0 mph24.1 kmh 29.88 in1011.9 mb 0.00 in0.0 mm 0.00 in0.0 mm 0.50 in12.7 mm
09:59 PM 23.0°F-5.0°C 20.3°F-6.5°C 93% 3.0 mph N4.8 kmh N 15.0 mph24.1 kmh 29.88 in1011.9 mb 0.00 in0.0 mm 0.00 in0.0 mm 0.50 in12.7 mm
10:01 PM 23.0°F-5.0°C 20.3°F-6.5°C 93% 9.0 mph N14.5 kmh N 15.0 mph24.1 kmh 29.88 in1011.9 mb 0.00 in0.0 mm 0.00 in0.0 mm 0.50 in12.7 mm
10:03 PM 22.9°F-5.1°C 20.2°F-6.6°C 93% 13.0 mph NE20.9 kmh NE 22.0 mph35.4 kmh 29.88 in1011.9 mb 0.00 in0.0 mm 0.00 in0.0 mm 0.50 in12.7 mm
10:05 PM 22.9°F-5.1°C 20.2°F-6.6°C 93% 10.0 mph NE16.1 kmh NE 22.0 mph35.4 kmh 29.89 in1012.2 mb 0.00 in0.0 mm 0.00 in0.0 mm 0.50 in12.7 mm
10:07 PM 22.8°F-5.1°C 20.1°F-6.6°C 93% 12.0 mph ENE19.3 kmh ENE 22.0 mph35.4 kmh 29.89 in1012.2 mb 0.00 in0.0 mm 0.00 in0.0 mm 0.50 in12.7 mm
10:09 PM 22.7°F-5.2°C 20.0°F-6.7°C 93% 13.0 mph NNE20.9 kmh NNE 22.0 mph35.4 kmh 29.88 in1011.9 mb 0.00 in0.0 mm 0.00 in0.0 mm 0.50 in12.7 mm
10:11 PM 22.6°F-5.2°C 19.9°F-6.7°C 93% 4.0 mph N6.4 kmh N 22.0 mph35.4 kmh 29.88 in1011.9 mb 0.00 in0.0 mm 0.00 in0.0 mm 0.50 in12.7 mm
10:13 PM 22.5°F-5.3°C 19.8°F-6.8°C 93% 5.0 mph NE8.0 kmh NE 22.0 mph35.4 kmh 29.89 in1012.2 mb 0.00 in0.0 mm 0.00 in0.0 mm 0.50 in12.7 mm
10:15 PM 22.5°F-5.3°C 19.8°F-6.8°C 93% 10.0 mph ENE16.1 kmh ENE 22.0 mph35.4 kmh 29.89 in1012.2 mb 0.00 in0.0 mm 0.00 in0.0 mm 0.50 in12.7 mm
10:17 PM 22.4°F-5.3°C 19.7°F-6.8°C 93% 4.0 mph NE6.4 kmh NE 22.0 mph35.4 kmh 29.89 in1012.2 mb 0.00 in0.0 mm 0.00 in0.0 mm 0.50 in12.7 mm
10:19 PM 22.3°F-5.4°C 19.6°F-6.9°C 93% 5.0 mph NE8.0 kmh NE 22.0 mph35.4 kmh 29.90 in1012.5 mb 0.00 in0.0 mm 0.00 in0.0 mm 0.50 in12.7 mm
10:21 PM 22.2°F-5.4°C 19.5°F-6.9°C 93% 5.0 mph ENE8.0 kmh ENE 22.0 mph35.4 kmh 29.90 in1012.5 mb 0.00 in0.0 mm 0.00 in0.0 mm 0.50 in12.7 mm
10:23 PM 22.2°F-5.4°C 19.5°F-6.9°C 93% 6.0 mph NE9.7 kmh NE 15.0 mph24.1 kmh 29.91 in1012.9 mb 0.00 in0.0 mm 0.00 in0.0 mm 0.50 in12.7 mm
10:25 PM 22.1°F-5.5°C 19.4°F-7.0°C 93% 11.0 mph N17.7 kmh N 15.0 mph24.1 kmh 29.91 in1012.9 mb 0.00 in0.0 mm 0.00 in0.0 mm 0.50 in12.7 mm
10:27 PM 22.1°F-5.5°C 19.4°F-7.0°C 93% 11.0 mph N17.7 kmh N 15.0 mph24.1 kmh 29.91 in1012.9 mb 0.00 in0.0 mm 0.00 in0.0 mm 0.50 in12.7 mm
10:29 PM 22.0°F-5.6°C 19.3°F-7.1°C 93% 10.0 mph N16.1 kmh N 15.0 mph24.1 kmh 29.91 in1012.9 mb 0.00 in0.0 mm 0.00 in0.0 mm 0.50 in12.7 mm
10:31 PM 22.0°F-5.6°C 19.3°F-7.1°C 93% 8.0 mph NNE12.9 kmh NNE 15.0 mph24.1 kmh 29.91 in1012.9 mb 0.00 in0.0 mm 0.00 in0.0 mm 0.50 in12.7 mm
10:33 PM 22.0°F-5.6°C 19.3°F-7.1°C 93% 8.0 mph NW12.9 kmh NW 15.0 mph24.1 kmh 29.92 in1013.2 mb 0.00 in0.0 mm 0.00 in0.0 mm 0.50 in12.7 mm
10:35 PM 22.0°F-5.6°C 19.3°F-7.1°C 93% 9.0 mph NNW14.5 kmh NNW 15.0 mph24.1 kmh 29.92 in1013.2 mb 0.00 in0.0 mm 0.00 in0.0 mm 0.50 in12.7 mm
10:37 PM 21.9°F-5.6°C 19.2°F-7.1°C 93% 12.0 mph N19.3 kmh N 21.0 mph33.8 kmh 29.92 in1013.2 mb 0.00 in0.0 mm 0.00 in0.0 mm 0.50 in12.7 mm
10:39 PM 21.9°F-5.6°C 19.2°F-7.1°C 93% 8.0 mph N12.9 kmh N 21.0 mph33.8 kmh 29.93 in1013.5 mb 0.00 in0.0 mm 0.00 in0.0 mm 0.50 in12.7 mm
10:41 PM 21.9°F-5.6°C 19.2°F-7.1°C 93% 4.0 mph NW6.4 kmh NW 21.0 mph33.8 kmh 29.92 in1013.2 mb 0.00 in0.0 mm 0.00 in0.0 mm 0.50 in12.7 mm
10:43 PM 21.8°F-5.7°C 19.1°F-7.2°C 93% 5.0 mph N8.0 kmh N 21.0 mph33.8 kmh 29.91 in1012.9 mb 0.00 in0.0 mm 0.00 in0.0 mm 0.50 in12.7 mm
10:45 PM 21.8°F-5.7°C 19.1°F-7.2°C 93% 5.0 mph NNW8.0 kmh NNW 21.0 mph33.8 kmh 29.91 in1012.9 mb 0.00 in0.0 mm 0.00 in0.0 mm 0.50 in12.7 mm
10:47 PM 21.8°F-5.7°C 19.1°F-7.2°C 93% 4.0 mph N6.4 kmh N 21.0 mph33.8 kmh 29.91 in1012.9 mb 0.00 in0.0 mm 0.00 in0.0 mm 0.50 in12.7 mm
10:49 PM 21.8°F-5.7°C 19.1°F-7.2°C 93% 4.0 mph N6.4 kmh N 21.0 mph33.8 kmh 29.91 in1012.9 mb 0.00 in0.0 mm 0.00 in0.0 mm 0.50 in12.7 mm
10:51 PM 21.7°F-5.7°C 19.0°F-7.2°C 93% 8.0 mph N12.9 kmh N 21.0 mph33.8 kmh 29.91 in1012.9 mb 0.00 in0.0 mm 0.00 in0.0 mm 0.50 in12.7 mm
10:53 PM 21.7°F-5.7°C 19.0°F-7.2°C 93% 9.0 mph N14.5 kmh N 21.0 mph33.8 kmh 29.91 in1012.9 mb 0.00 in0.0 mm 0.00 in0.0 mm 0.50 in12.7 mm
10:55 PM 21.6°F-5.8°C 18.9°F-7.3°C 93% 10.0 mph NE16.1 kmh NE 21.0 mph33.8 kmh 29.91 in1012.9 mb 0.00 in0.0 mm 0.00 in0.0 mm 0.50 in12.7 mm
10:57 PM 21.5°F-5.8°C 18.8°F-7.3°C 93% 6.0 mph N9.7 kmh N 16.0 mph25.7 kmh 29.91 in1012.9 mb 0.00 in0.0 mm 0.00 in0.0 mm 0.50 in12.7 mm
10:59 PM 21.5°F-5.8°C 18.8°F-7.3°C 93% 10.0 mph NE16.1 kmh NE 16.0 mph25.7 kmh 29.92 in1013.2 mb 0.00 in0.0 mm 0.00 in0.0 mm 0.50 in12.7 mm
11:01 PM 21.4°F-5.9°C 18.7°F-7.4°C 93% 6.0 mph NE9.7 kmh NE 16.0 mph25.7 kmh 29.92 in1013.2 mb 0.00 in0.0 mm 0.00 in0.0 mm 0.50 in12.7 mm
11:03 PM 21.4°F-5.9°C 18.7°F-7.4°C 93% 11.0 mph N17.7 kmh N 16.0 mph25.7 kmh 29.92 in1013.2 mb 0.00 in0.0 mm 0.00 in0.0 mm 0.50 in12.7 mm
11:05 PM 21.4°F-5.9°C 18.7°F-7.4°C 93% 10.0 mph N16.1 kmh N 16.0 mph25.7 kmh 29.92 in1013.2 mb 0.00 in0.0 mm 0.00 in0.0 mm 0.50 in12.7 mm
11:07 PM 21.3°F-5.9°C 18.6°F-7.4°C 93% 3.0 mph E4.8 kmh E 16.0 mph25.7 kmh 29.92 in1013.2 mb 0.00 in0.0 mm 0.00 in0.0 mm 0.50 in12.7 mm
11:09 PM 21.3°F-5.9°C 18.6°F-7.4°C 93% 3.0 mph NNE4.8 kmh NNE 16.0 mph25.7 kmh 29.92 in1013.2 mb 0.00 in0.0 mm 0.00 in0.0 mm 0.50 in12.7 mm
11:11 PM 21.2°F-6.0°C 18.5°F-7.5°C 93% 21.0 mph NNE33.8 kmh NNE 21.0 mph33.8 kmh 29.92 in1013.2 mb 0.00 in0.0 mm 0.00 in0.0 mm 0.50 in12.7 mm
11:13 PM 21.2°F-6.0°C 18.5°F-7.5°C 93% 4.0 mph N6.4 kmh N 21.0 mph33.8 kmh 29.92 in1013.2 mb 0.00 in0.0 mm 0.00 in0.0 mm 0.50 in12.7 mm
11:15 PM 21.2°F-6.0°C 18.5°F-7.5°C 93% 4.0 mph N6.4 kmh N 21.0 mph33.8 kmh 29.91 in1012.9 mb 0.00 in0.0 mm 0.00 in0.0 mm 0.50 in12.7 mm
11:19 PM 21.1°F-6.1°C 18.4°F-7.6°C 93% 4.0 mph NNE6.4 kmh NNE 21.0 mph33.8 kmh 29.90 in1012.5 mb 0.00 in0.0 mm 0.00 in0.0 mm 0.50 in12.7 mm
11:21 PM 21.0°F-6.1°C 18.3°F-7.6°C 93% 5.0 mph NE8.0 kmh NE 21.0 mph33.8 kmh 29.90 in1012.5 mb 0.00 in0.0 mm 0.00 in0.0 mm 0.50 in12.7 mm
11:23 PM 21.0°F-6.1°C 18.3°F-7.6°C 93% 12.0 mph NNE19.3 kmh NNE 21.0 mph33.8 kmh 29.89 in1012.2 mb 0.00 in0.0 mm 0.00 in0.0 mm 0.50 in12.7 mm
11:25 PM 20.9°F-6.2°C 18.2°F-7.7°C 93% 9.0 mph NNE14.5 kmh NNE 21.0 mph33.8 kmh 29.89 in1012.2 mb 0.00 in0.0 mm 0.00 in0.0 mm 0.50 in12.7 mm
11:27 PM 20.8°F-6.2°C 18.1°F-7.7°C 93% 11.0 mph ENE17.7 kmh ENE 21.0 mph33.8 kmh 29.89 in1012.2 mb 0.00 in0.0 mm 0.00 in0.0 mm 0.50 in12.7 mm
11:29 PM 20.8°F-6.2°C 18.1°F-7.7°C 93% 6.0 mph 9.7 kmh 21.0 mph33.8 kmh 29.89 in1012.2 mb 0.00 in0.0 mm 0.00 in0.0 mm 0.50 in12.7 mm
11:31 PM 20.8°F-6.2°C 18.1°F-7.7°C 93% 9.0 mph NNW14.5 kmh NNW 21.0 mph33.8 kmh 29.89 in1012.2 mb 0.00 in0.0 mm 0.00 in0.0 mm 0.50 in12.7 mm
11:33 PM 20.7°F-6.3°C 18.0°F-7.8°C 93% 7.0 mph NNE11.3 kmh NNE 20.0 mph32.2 kmh 29.89 in1012.2 mb 0.00 in0.0 mm 0.00 in0.0 mm 0.50 in12.7 mm
11:35 PM 20.7°F-6.3°C 18.0°F-7.8°C 93% 10.0 mph NNE16.1 kmh NNE 20.0 mph32.2 kmh 29.89 in1012.2 mb 0.00 in0.0 mm 0.00 in0.0 mm 0.50 in12.7 mm
11:37 PM 20.7°F-6.3°C 18.0°F-7.8°C 93% 9.0 mph NNW14.5 kmh NNW 20.0 mph32.2 kmh 29.89 in1012.2 mb 0.00 in0.0 mm 0.00 in0.0 mm 0.50 in12.7 mm
11:39 PM 20.6°F-6.3°C 17.9°F-7.8°C 93% 4.0 mph N6.4 kmh N 20.0 mph32.2 kmh 29.89 in1012.2 mb 0.00 in0.0 mm 0.00 in0.0 mm 0.50 in12.7 mm
11:41 PM 20.6°F-6.3°C 17.9°F-7.8°C 93% 7.0 mph NE11.3 kmh NE 20.0 mph32.2 kmh 29.89 in1012.2 mb 0.00 in0.0 mm 0.00 in0.0 mm 0.50 in12.7 mm
11:43 PM 20.6°F-6.3°C 17.9°F-7.8°C 93% 11.0 mph NNE17.7 kmh NNE 20.0 mph32.2 kmh 29.89 in1012.2 mb 0.00 in0.0 mm 0.00 in0.0 mm 0.50 in12.7 mm
11:45 PM 20.6°F-6.3°C 17.9°F-7.8°C 93% 5.0 mph NW8.0 kmh NW 20.0 mph32.2 kmh 29.89 in1012.2 mb 0.00 in0.0 mm 0.00 in0.0 mm 0.50 in12.7 mm
11:47 PM 20.6°F-6.3°C 17.9°F-7.8°C 93% 3.0 mph N4.8 kmh N 20.0 mph32.2 kmh 29.89 in1012.2 mb 0.00 in0.0 mm 0.00 in0.0 mm 0.50 in12.7 mm
11:49 PM 20.5°F-6.4°C 17.8°F-7.9°C 93% 3.0 mph NNE4.8 kmh NNE 20.0 mph32.2 kmh 29.89 in1012.2 mb 0.00 in0.0 mm 0.00 in0.0 mm 0.50 in12.7 mm
11:51 PM 20.5°F-6.4°C 17.8°F-7.9°C 93% 9.0 mph NNW14.5 kmh NNW 20.0 mph32.2 kmh 29.89 in1012.2 mb 0.00 in0.0 mm 0.00 in0.0 mm 0.50 in12.7 mm
11:53 PM 20.5°F-6.4°C 17.8°F-7.9°C 93% 12.0 mph NE19.3 kmh NE 20.0 mph32.2 kmh 29.90 in1012.5 mb 0.00 in0.0 mm 0.00 in0.0 mm 0.50 in12.7 mm
11:55 PM 20.4°F-6.4°C 17.7°F-7.9°C 93% 9.0 mph NNE14.5 kmh NNE 20.0 mph32.2 kmh 29.90 in1012.5 mb 0.00 in0.0 mm 0.00 in0.0 mm 0.50 in12.7 mm
11:57 PM 20.4°F-6.4°C 17.7°F-7.9°C 93% 10.0 mph NE16.1 kmh NE 16.0 mph25.7 kmh 29.90 in1012.5 mb 0.00 in0.0 mm 0.00 in0.0 mm 0.50 in12.7 mm
11:59 PM 20.3°F-6.5°C 17.6°F-8.0°C 93% 10.0 mph NE16.1 kmh NE 19.0 mph30.6 kmh 29.91 in1012.9 mb 0.00 in0.0 mm 0.00 in0.0 mm 0.50 in12.7 mm